<?xml version="1.0" encoding="UTF-8" standalone="no" ?>
<gpx xmlns="http://www.topografix.com/GPX/1/1" xmlns:xsi="http://www.w3.org/2001/XMLSchema-instance" xsi:schemaLocation="http://www.topografix.com/GPX/1/1 http://www.topografix.com/GPX/1/1/gpx.xsd" version="1.1" creator="VisuGPX - https://www.visugpx.com">
  <metadata>
    <name>Clansayes - Combe Guillon</name>
  </metadata>
  <trk>
    <name><![CDATA[2021-11-30 18:44:14]]></name>
    <trkseg>
      <trkpt lat="44.37232" lon="4.80928">
        <ele>236.54</ele>
        <time>2021-11-30T07:30:29Z</time>
      </trkpt>
      <trkpt lat="44.37172" lon="4.81674">
        <ele>246.72</ele>
        <time>2021-11-30T07:41:25Z</time>
      </trkpt>
      <trkpt lat="44.37159" lon="4.81688">
        <ele>247.51</ele>
        <time>2021-11-30T07:41:45Z</time>
      </trkpt>
      <trkpt lat="44.37145" lon="4.81693">
        <ele>248.37</ele>
        <time>2021-11-30T07:42:03Z</time>
      </trkpt>
      <trkpt lat="44.37129" lon="4.81696">
        <ele>248.99</ele>
        <time>2021-11-30T07:42:21Z</time>
      </trkpt>
      <trkpt lat="44.37114" lon="4.81708">
        <ele>251.16</ele>
        <time>2021-11-30T07:42:41Z</time>
      </trkpt>
      <trkpt lat="44.37097" lon="4.81717">
        <ele>254.06</ele>
        <time>2021-11-30T07:43:01Z</time>
      </trkpt>
      <trkpt lat="44.37081" lon="4.81721">
        <ele>256.44</ele>
        <time>2021-11-30T07:43:21Z</time>
      </trkpt>
      <trkpt lat="44.37067" lon="4.81726">
        <ele>258.74</ele>
        <time>2021-11-30T07:43:38Z</time>
      </trkpt>
      <trkpt lat="44.37058" lon="4.81728">
        <ele>260.34</ele>
        <time>2021-11-30T07:43:47Z</time>
      </trkpt>
      <trkpt lat="44.37034" lon="4.81739">
        <ele>262.94</ele>
        <time>2021-11-30T07:44:09Z</time>
      </trkpt>
      <trkpt lat="44.37015" lon="4.81741">
        <ele>265.08</ele>
        <time>2021-11-30T07:44:32Z</time>
      </trkpt>
      <trkpt lat="44.37009" lon="4.81763">
        <ele>267.24</ele>
        <time>2021-11-30T07:44:54Z</time>
      </trkpt>
      <trkpt lat="44.37001" lon="4.81769">
        <ele>267.67</ele>
        <time>2021-11-30T07:45:01Z</time>
      </trkpt>
      <trkpt lat="44.36977" lon="4.81776">
        <ele>270.17</ele>
        <time>2021-11-30T07:45:26Z</time>
      </trkpt>
      <trkpt lat="44.36957" lon="4.81776">
        <ele>273.26</ele>
        <time>2021-11-30T07:45:48Z</time>
      </trkpt>
      <trkpt lat="44.36942" lon="4.81777">
        <ele>275.15</ele>
        <time>2021-11-30T07:46:05Z</time>
      </trkpt>
      <trkpt lat="44.3692" lon="4.81779">
        <ele>278.25</ele>
        <time>2021-11-30T07:46:28Z</time>
      </trkpt>
      <trkpt lat="44.36899" lon="4.81784">
        <ele>280.04</ele>
        <time>2021-11-30T07:46:49Z</time>
      </trkpt>
      <trkpt lat="44.36883" lon="4.81796">
        <ele>281.17</ele>
        <time>2021-11-30T07:47:10Z</time>
      </trkpt>
      <trkpt lat="44.36879" lon="4.81808">
        <ele>282.7</ele>
        <time>2021-11-30T07:47:27Z</time>
      </trkpt>
      <trkpt lat="44.36874" lon="4.81812">
        <ele>282.64</ele>
        <time>2021-11-30T07:47:46Z</time>
      </trkpt>
      <trkpt lat="44.36877" lon="4.81812">
        <ele>282.25</ele>
        <time>2021-11-30T07:48:11Z</time>
      </trkpt>
      <trkpt lat="44.36876" lon="4.81812">
        <ele>282.02</ele>
        <time>2021-11-30T07:48:28Z</time>
      </trkpt>
      <trkpt lat="44.36854" lon="4.81872">
        <ele>284.47</ele>
        <time>2021-11-30T07:51:03Z</time>
      </trkpt>
      <trkpt lat="44.3685" lon="4.81901">
        <ele>285.3</ele>
        <time>2021-11-30T07:51:22Z</time>
      </trkpt>
      <trkpt lat="44.3685" lon="4.81925">
        <ele>285.85</ele>
        <time>2021-11-30T07:51:37Z</time>
      </trkpt>
      <trkpt lat="44.3685" lon="4.81957">
        <ele>286.93</ele>
        <time>2021-11-30T07:51:57Z</time>
      </trkpt>
      <trkpt lat="44.36857" lon="4.81982">
        <ele>287.35</ele>
        <time>2021-11-30T07:52:19Z</time>
      </trkpt>
      <trkpt lat="44.36864" lon="4.82015">
        <ele>286.09</ele>
        <time>2021-11-30T07:52:40Z</time>
      </trkpt>
      <trkpt lat="44.36866" lon="4.82048">
        <ele>285.31</ele>
        <time>2021-11-30T07:53:01Z</time>
      </trkpt>
      <trkpt lat="44.36872" lon="4.82088">
        <ele>284.66</ele>
        <time>2021-11-30T07:53:25Z</time>
      </trkpt>
      <trkpt lat="44.36874" lon="4.82121">
        <ele>283.72</ele>
        <time>2021-11-30T07:53:43Z</time>
      </trkpt>
      <trkpt lat="44.36874" lon="4.82142">
        <ele>282.77</ele>
        <time>2021-11-30T07:53:56Z</time>
      </trkpt>
      <trkpt lat="44.3687" lon="4.82159">
        <ele>281.21</ele>
        <time>2021-11-30T07:54:09Z</time>
      </trkpt>
      <trkpt lat="44.36865" lon="4.8217">
        <ele>280.16</ele>
        <time>2021-11-30T07:54:17Z</time>
      </trkpt>
      <trkpt lat="44.36859" lon="4.82191">
        <ele>279.93</ele>
        <time>2021-11-30T07:54:33Z</time>
      </trkpt>
      <trkpt lat="44.36854" lon="4.82202">
        <ele>279.58</ele>
        <time>2021-11-30T07:54:39Z</time>
      </trkpt>
      <trkpt lat="44.36843" lon="4.82224">
        <ele>278.22</ele>
        <time>2021-11-30T07:54:54Z</time>
      </trkpt>
      <trkpt lat="44.36836" lon="4.82248">
        <ele>276.19</ele>
        <time>2021-11-30T07:55:14Z</time>
      </trkpt>
      <trkpt lat="44.3684" lon="4.82274">
        <ele>274.45</ele>
        <time>2021-11-30T07:55:33Z</time>
      </trkpt>
      <trkpt lat="44.36844" lon="4.82297">
        <ele>271.94</ele>
        <time>2021-11-30T07:55:52Z</time>
      </trkpt>
      <trkpt lat="44.36851" lon="4.8232">
        <ele>269.45</ele>
        <time>2021-11-30T07:56:13Z</time>
      </trkpt>
      <trkpt lat="44.36851" lon="4.82335">
        <ele>267.95</ele>
        <time>2021-11-30T07:56:24Z</time>
      </trkpt>
      <trkpt lat="44.36839" lon="4.82348">
        <ele>266.7</ele>
        <time>2021-11-30T07:56:39Z</time>
      </trkpt>
      <trkpt lat="44.3682" lon="4.82362">
        <ele>264.88</ele>
        <time>2021-11-30T07:56:58Z</time>
      </trkpt>
      <trkpt lat="44.36808" lon="4.82376">
        <ele>262.89</ele>
        <time>2021-11-30T07:57:14Z</time>
      </trkpt>
      <trkpt lat="44.36802" lon="4.82386">
        <ele>261.63</ele>
        <time>2021-11-30T07:57:24Z</time>
      </trkpt>
      <trkpt lat="44.36789" lon="4.82397">
        <ele>260.32</ele>
        <time>2021-11-30T07:57:37Z</time>
      </trkpt>
      <trkpt lat="44.36786" lon="4.82402">
        <ele>259.74</ele>
        <time>2021-11-30T07:57:41Z</time>
      </trkpt>
      <trkpt lat="44.36783" lon="4.82424">
        <ele>257.79</ele>
        <time>2021-11-30T07:58:00Z</time>
      </trkpt>
      <trkpt lat="44.36781" lon="4.82445">
        <ele>257.11</ele>
        <time>2021-11-30T07:58:13Z</time>
      </trkpt>
      <trkpt lat="44.36782" lon="4.8246">
        <ele>256.59</ele>
        <time>2021-11-30T07:58:21Z</time>
      </trkpt>
      <trkpt lat="44.36784" lon="4.82487">
        <ele>256</ele>
        <time>2021-11-30T07:58:39Z</time>
      </trkpt>
      <trkpt lat="44.36783" lon="4.82498">
        <ele>256.04</ele>
        <time>2021-11-30T07:58:46Z</time>
      </trkpt>
      <trkpt lat="44.36778" lon="4.8252">
        <ele>255.52</ele>
        <time>2021-11-30T07:58:59Z</time>
      </trkpt>
      <trkpt lat="44.36777" lon="4.82524">
        <ele>255.38</ele>
        <time>2021-11-30T07:59:01Z</time>
      </trkpt>
      <trkpt lat="44.36775" lon="4.82552">
        <ele>254.52</ele>
        <time>2021-11-30T07:59:18Z</time>
      </trkpt>
      <trkpt lat="44.36776" lon="4.82571">
        <ele>253.13</ele>
        <time>2021-11-30T07:59:31Z</time>
      </trkpt>
      <trkpt lat="44.36776" lon="4.82589">
        <ele>252.53</ele>
        <time>2021-11-30T07:59:43Z</time>
      </trkpt>
      <trkpt lat="44.36781" lon="4.82601">
        <ele>251.23</ele>
        <time>2021-11-30T07:59:57Z</time>
      </trkpt>
      <trkpt lat="44.36776" lon="4.82614">
        <ele>250.7</ele>
        <time>2021-11-30T08:00:07Z</time>
      </trkpt>
      <trkpt lat="44.36784" lon="4.82622">
        <ele>250.06</ele>
        <time>2021-11-30T08:00:20Z</time>
      </trkpt>
      <trkpt lat="44.36786" lon="4.82623">
        <ele>249.99</ele>
        <time>2021-11-30T08:00:22Z</time>
      </trkpt>
      <trkpt lat="44.36796" lon="4.82636">
        <ele>248.69</ele>
        <time>2021-11-30T08:00:36Z</time>
      </trkpt>
      <trkpt lat="44.36803" lon="4.82665">
        <ele>247.12</ele>
        <time>2021-11-30T08:01:00Z</time>
      </trkpt>
      <trkpt lat="44.36814" lon="4.8269">
        <ele>246.17</ele>
        <time>2021-11-30T08:01:24Z</time>
      </trkpt>
      <trkpt lat="44.36823" lon="4.82709">
        <ele>244.53</ele>
        <time>2021-11-30T08:01:44Z</time>
      </trkpt>
      <trkpt lat="44.36833" lon="4.82733">
        <ele>243.61</ele>
        <time>2021-11-30T08:02:02Z</time>
      </trkpt>
      <trkpt lat="44.36839" lon="4.82753">
        <ele>243.11</ele>
        <time>2021-11-30T08:02:20Z</time>
      </trkpt>
      <trkpt lat="44.36855" lon="4.82773">
        <ele>242.29</ele>
        <time>2021-11-30T08:02:40Z</time>
      </trkpt>
      <trkpt lat="44.36862" lon="4.82788">
        <ele>241.65</ele>
        <time>2021-11-30T08:02:50Z</time>
      </trkpt>
      <trkpt lat="44.36874" lon="4.82811">
        <ele>240.7</ele>
        <time>2021-11-30T08:03:07Z</time>
      </trkpt>
      <trkpt lat="44.36887" lon="4.82835">
        <ele>239.94</ele>
        <time>2021-11-30T08:03:28Z</time>
      </trkpt>
      <trkpt lat="44.36894" lon="4.82853">
        <ele>239.57</ele>
        <time>2021-11-30T08:03:42Z</time>
      </trkpt>
      <trkpt lat="44.36904" lon="4.82871">
        <ele>238.92</ele>
        <time>2021-11-30T08:04:00Z</time>
      </trkpt>
      <trkpt lat="44.36917" lon="4.82894">
        <ele>237.83</ele>
        <time>2021-11-30T08:04:20Z</time>
      </trkpt>
      <trkpt lat="44.36918" lon="4.82926">
        <ele>236.46</ele>
        <time>2021-11-30T08:04:43Z</time>
      </trkpt>
      <trkpt lat="44.36925" lon="4.82943">
        <ele>235.08</ele>
        <time>2021-11-30T08:05:03Z</time>
      </trkpt>
      <trkpt lat="44.36929" lon="4.82962">
        <ele>232.79</ele>
        <time>2021-11-30T08:05:22Z</time>
      </trkpt>
      <trkpt lat="44.36927" lon="4.82988">
        <ele>229.73</ele>
        <time>2021-11-30T08:05:41Z</time>
      </trkpt>
      <trkpt lat="44.36929" lon="4.83011">
        <ele>227.97</ele>
        <time>2021-11-30T08:05:59Z</time>
      </trkpt>
      <trkpt lat="44.3691" lon="4.83035">
        <ele>226.14</ele>
        <time>2021-11-30T08:06:20Z</time>
      </trkpt>
      <trkpt lat="44.36895" lon="4.8304">
        <ele>224.94</ele>
        <time>2021-11-30T08:06:37Z</time>
      </trkpt>
      <trkpt lat="44.36892" lon="4.83042">
        <ele>224.56</ele>
        <time>2021-11-30T08:06:41Z</time>
      </trkpt>
      <trkpt lat="44.36877" lon="4.83041">
        <ele>222.91</ele>
        <time>2021-11-30T08:07:00Z</time>
      </trkpt>
      <trkpt lat="44.36858" lon="4.83048">
        <ele>221.55</ele>
        <time>2021-11-30T08:07:19Z</time>
      </trkpt>
      <trkpt lat="44.36832" lon="4.83057">
        <ele>219.46</ele>
        <time>2021-11-30T08:07:42Z</time>
      </trkpt>
      <trkpt lat="44.3682" lon="4.83063">
        <ele>217.77</ele>
        <time>2021-11-30T08:07:57Z</time>
      </trkpt>
      <trkpt lat="44.36801" lon="4.83069">
        <ele>215.59</ele>
        <time>2021-11-30T08:08:20Z</time>
      </trkpt>
      <trkpt lat="44.36793" lon="4.8307">
        <ele>215.08</ele>
        <time>2021-11-30T08:08:29Z</time>
      </trkpt>
      <trkpt lat="44.36787" lon="4.8307">
        <ele>215.27</ele>
        <time>2021-11-30T08:08:47Z</time>
      </trkpt>
      <trkpt lat="44.36786" lon="4.83072">
        <ele>215.32</ele>
        <time>2021-11-30T08:09:02Z</time>
      </trkpt>
      <trkpt lat="44.36757" lon="4.83059">
        <ele>214.89</ele>
        <time>2021-11-30T08:14:19Z</time>
      </trkpt>
      <trkpt lat="44.36741" lon="4.83051">
        <ele>214.67</ele>
        <time>2021-11-30T08:14:36Z</time>
      </trkpt>
      <trkpt lat="44.36723" lon="4.83044">
        <ele>214.7</ele>
        <time>2021-11-30T08:14:52Z</time>
      </trkpt>
      <trkpt lat="44.36707" lon="4.83041">
        <ele>214.01</ele>
        <time>2021-11-30T08:15:08Z</time>
      </trkpt>
      <trkpt lat="44.36697" lon="4.83036">
        <ele>213.82</ele>
        <time>2021-11-30T08:15:18Z</time>
      </trkpt>
      <trkpt lat="44.36694" lon="4.83035">
        <ele>213.78</ele>
        <time>2021-11-30T08:15:21Z</time>
      </trkpt>
      <trkpt lat="44.36678" lon="4.83023">
        <ele>213.33</ele>
        <time>2021-11-30T08:15:36Z</time>
      </trkpt>
      <trkpt lat="44.36675" lon="4.83021">
        <ele>213.28</ele>
        <time>2021-11-30T08:15:39Z</time>
      </trkpt>
      <trkpt lat="44.36665" lon="4.83014">
        <ele>213.01</ele>
        <time>2021-11-30T08:15:48Z</time>
      </trkpt>
      <trkpt lat="44.3666" lon="4.83014">
        <ele>212.95</ele>
        <time>2021-11-30T08:15:52Z</time>
      </trkpt>
      <trkpt lat="44.36637" lon="4.83013">
        <ele>211.73</ele>
        <time>2021-11-30T08:16:10Z</time>
      </trkpt>
      <trkpt lat="44.36616" lon="4.8301">
        <ele>211.13</ele>
        <time>2021-11-30T08:16:27Z</time>
      </trkpt>
      <trkpt lat="44.36601" lon="4.83009">
        <ele>210.83</ele>
        <time>2021-11-30T08:16:39Z</time>
      </trkpt>
      <trkpt lat="44.36584" lon="4.83009">
        <ele>210.35</ele>
        <time>2021-11-30T08:16:54Z</time>
      </trkpt>
      <trkpt lat="44.36568" lon="4.83008">
        <ele>209.76</ele>
        <time>2021-11-30T08:17:07Z</time>
      </trkpt>
      <trkpt lat="44.36547" lon="4.83015">
        <ele>209.79</ele>
        <time>2021-11-30T08:17:26Z</time>
      </trkpt>
      <trkpt lat="44.36525" lon="4.83022">
        <ele>209.2</ele>
        <time>2021-11-30T08:17:49Z</time>
      </trkpt>
      <trkpt lat="44.36518" lon="4.83021">
        <ele>208.5</ele>
        <time>2021-11-30T08:17:56Z</time>
      </trkpt>
      <trkpt lat="44.36496" lon="4.8302">
        <ele>208.01</ele>
        <time>2021-11-30T08:18:15Z</time>
      </trkpt>
      <trkpt lat="44.36475" lon="4.83029">
        <ele>208.04</ele>
        <time>2021-11-30T08:18:34Z</time>
      </trkpt>
      <trkpt lat="44.36465" lon="4.83038">
        <ele>208.28</ele>
        <time>2021-11-30T08:18:45Z</time>
      </trkpt>
      <trkpt lat="44.36444" lon="4.83054">
        <ele>207.63</ele>
        <time>2021-11-30T08:19:06Z</time>
      </trkpt>
      <trkpt lat="44.36438" lon="4.83058">
        <ele>207.76</ele>
        <time>2021-11-30T08:19:10Z</time>
      </trkpt>
      <trkpt lat="44.3641" lon="4.83072">
        <ele>207.97</ele>
        <time>2021-11-30T08:19:34Z</time>
      </trkpt>
      <trkpt lat="44.36401" lon="4.83078">
        <ele>207.74</ele>
        <time>2021-11-30T08:19:42Z</time>
      </trkpt>
      <trkpt lat="44.36386" lon="4.83093">
        <ele>208.69</ele>
        <time>2021-11-30T08:19:57Z</time>
      </trkpt>
      <trkpt lat="44.36364" lon="4.83093">
        <ele>209.04</ele>
        <time>2021-11-30T08:20:18Z</time>
      </trkpt>
      <trkpt lat="44.36351" lon="4.83085">
        <ele>208.55</ele>
        <time>2021-11-30T08:20:34Z</time>
      </trkpt>
      <trkpt lat="44.3634" lon="4.83072">
        <ele>208.59</ele>
        <time>2021-11-30T08:20:43Z</time>
      </trkpt>
      <trkpt lat="44.36334" lon="4.83066">
        <ele>208.23</ele>
        <time>2021-11-30T08:20:53Z</time>
      </trkpt>
      <trkpt lat="44.3632" lon="4.83058">
        <ele>207.73</ele>
        <time>2021-11-30T08:21:08Z</time>
      </trkpt>
      <trkpt lat="44.36304" lon="4.83046">
        <ele>206.46</ele>
        <time>2021-11-30T08:21:23Z</time>
      </trkpt>
      <trkpt lat="44.36286" lon="4.83047">
        <ele>205.06</ele>
        <time>2021-11-30T08:21:40Z</time>
      </trkpt>
      <trkpt lat="44.36271" lon="4.83051">
        <ele>204.11</ele>
        <time>2021-11-30T08:21:53Z</time>
      </trkpt>
      <trkpt lat="44.36263" lon="4.83044">
        <ele>204.09</ele>
        <time>2021-11-30T08:22:07Z</time>
      </trkpt>
      <trkpt lat="44.36252" lon="4.83035">
        <ele>203.55</ele>
        <time>2021-11-30T08:22:28Z</time>
      </trkpt>
      <trkpt lat="44.36253" lon="4.83027">
        <ele>203.08</ele>
        <time>2021-11-30T08:22:43Z</time>
      </trkpt>
      <trkpt lat="44.3625" lon="4.83018">
        <ele>202.67</ele>
        <time>2021-11-30T08:22:54Z</time>
      </trkpt>
      <trkpt lat="44.36246" lon="4.83003">
        <ele>201.26</ele>
        <time>2021-11-30T08:23:09Z</time>
      </trkpt>
      <trkpt lat="44.36255" lon="4.82985">
        <ele>202.11</ele>
        <time>2021-11-30T08:23:28Z</time>
      </trkpt>
      <trkpt lat="44.36266" lon="4.82976">
        <ele>200.9</ele>
        <time>2021-11-30T08:23:41Z</time>
      </trkpt>
      <trkpt lat="44.36274" lon="4.82967">
        <ele>200.09</ele>
        <time>2021-11-30T08:23:54Z</time>
      </trkpt>
      <trkpt lat="44.36286" lon="4.82962">
        <ele>200.48</ele>
        <time>2021-11-30T08:24:06Z</time>
      </trkpt>
      <trkpt lat="44.36297" lon="4.82966">
        <ele>201.63</ele>
        <time>2021-11-30T08:24:19Z</time>
      </trkpt>
      <trkpt lat="44.36301" lon="4.82969">
        <ele>202.18</ele>
        <time>2021-11-30T08:24:24Z</time>
      </trkpt>
      <trkpt lat="44.36308" lon="4.82967">
        <ele>202.51</ele>
        <time>2021-11-30T08:24:45Z</time>
      </trkpt>
      <trkpt lat="44.36316" lon="4.82957">
        <ele>200.58</ele>
        <time>2021-11-30T08:25:05Z</time>
      </trkpt>
      <trkpt lat="44.36321" lon="4.82947">
        <ele>198.35</ele>
        <time>2021-11-30T08:25:20Z</time>
      </trkpt>
      <trkpt lat="44.36326" lon="4.82941">
        <ele>197.47</ele>
        <time>2021-11-30T08:25:32Z</time>
      </trkpt>
      <trkpt lat="44.36329" lon="4.82934">
        <ele>197.46</ele>
        <time>2021-11-30T08:25:48Z</time>
      </trkpt>
      <trkpt lat="44.36328" lon="4.82934">
        <ele>197.56</ele>
        <time>2021-11-30T08:26:07Z</time>
      </trkpt>
      <trkpt lat="44.36375" lon="4.82878">
        <ele>208.62</ele>
        <time>2021-11-30T08:28:16Z</time>
      </trkpt>
      <trkpt lat="44.36387" lon="4.82881">
        <ele>209.86</ele>
        <time>2021-11-30T08:28:34Z</time>
      </trkpt>
      <trkpt lat="44.36402" lon="4.82884">
        <ele>207.8</ele>
        <time>2021-11-30T08:28:53Z</time>
      </trkpt>
      <trkpt lat="44.36413" lon="4.82888">
        <ele>204.63</ele>
        <time>2021-11-30T08:29:11Z</time>
      </trkpt>
      <trkpt lat="44.36419" lon="4.8289">
        <ele>201.92</ele>
        <time>2021-11-30T08:29:25Z</time>
      </trkpt>
      <trkpt lat="44.3643" lon="4.82887">
        <ele>203.99</ele>
        <time>2021-11-30T08:29:39Z</time>
      </trkpt>
      <trkpt lat="44.36447" lon="4.82894">
        <ele>207.09</ele>
        <time>2021-11-30T08:30:02Z</time>
      </trkpt>
      <trkpt lat="44.36464" lon="4.82903">
        <ele>207.99</ele>
        <time>2021-11-30T08:30:21Z</time>
      </trkpt>
      <trkpt lat="44.3648" lon="4.82912">
        <ele>208.96</ele>
        <time>2021-11-30T08:30:41Z</time>
      </trkpt>
      <trkpt lat="44.36497" lon="4.82915">
        <ele>209.56</ele>
        <time>2021-11-30T08:31:04Z</time>
      </trkpt>
      <trkpt lat="44.36506" lon="4.82899">
        <ele>210.94</ele>
        <time>2021-11-30T08:31:21Z</time>
      </trkpt>
      <trkpt lat="44.36511" lon="4.82883">
        <ele>213.25</ele>
        <time>2021-11-30T08:31:39Z</time>
      </trkpt>
      <trkpt lat="44.36515" lon="4.82857">
        <ele>216.4</ele>
        <time>2021-11-30T08:32:00Z</time>
      </trkpt>
      <trkpt lat="44.36515" lon="4.82845">
        <ele>218.53</ele>
        <time>2021-11-30T08:32:12Z</time>
      </trkpt>
      <trkpt lat="44.36516" lon="4.82842">
        <ele>218.76</ele>
        <time>2021-11-30T08:32:14Z</time>
      </trkpt>
      <trkpt lat="44.36518" lon="4.82838">
        <ele>219.01</ele>
        <time>2021-11-30T08:32:17Z</time>
      </trkpt>
      <trkpt lat="44.36519" lon="4.82834">
        <ele>219.45</ele>
        <time>2021-11-30T08:32:21Z</time>
      </trkpt>
      <trkpt lat="44.3652" lon="4.82827">
        <ele>220.33</ele>
        <time>2021-11-30T08:32:27Z</time>
      </trkpt>
      <trkpt lat="44.36529" lon="4.82807">
        <ele>222.9</ele>
        <time>2021-11-30T08:32:46Z</time>
      </trkpt>
      <trkpt lat="44.36533" lon="4.82792">
        <ele>225.17</ele>
        <time>2021-11-30T08:33:01Z</time>
      </trkpt>
      <trkpt lat="44.36552" lon="4.8278">
        <ele>228.23</ele>
        <time>2021-11-30T08:33:23Z</time>
      </trkpt>
      <trkpt lat="44.36569" lon="4.8277">
        <ele>229.98</ele>
        <time>2021-11-30T08:33:40Z</time>
      </trkpt>
      <trkpt lat="44.36581" lon="4.82756">
        <ele>232.4</ele>
        <time>2021-11-30T08:34:00Z</time>
      </trkpt>
      <trkpt lat="44.36595" lon="4.82738">
        <ele>234.71</ele>
        <time>2021-11-30T08:34:24Z</time>
      </trkpt>
      <trkpt lat="44.36613" lon="4.82723">
        <ele>237.04</ele>
        <time>2021-11-30T08:34:47Z</time>
      </trkpt>
      <trkpt lat="44.36625" lon="4.82705">
        <ele>238.92</ele>
        <time>2021-11-30T08:35:09Z</time>
      </trkpt>
      <trkpt lat="44.36628" lon="4.82683">
        <ele>241.75</ele>
        <time>2021-11-30T08:35:29Z</time>
      </trkpt>
      <trkpt lat="44.36628" lon="4.82677">
        <ele>242.5</ele>
        <time>2021-11-30T08:35:52Z</time>
      </trkpt>
      <trkpt lat="44.36619" lon="4.82671">
        <ele>242.43</ele>
        <time>2021-11-30T08:36:12Z</time>
      </trkpt>
      <trkpt lat="44.3661" lon="4.82666">
        <ele>241.41</ele>
        <time>2021-11-30T08:36:25Z</time>
      </trkpt>
      <trkpt lat="44.36604" lon="4.82663">
        <ele>240.11</ele>
        <time>2021-11-30T08:36:39Z</time>
      </trkpt>
      <trkpt lat="44.3659" lon="4.82664">
        <ele>237.61</ele>
        <time>2021-11-30T08:36:57Z</time>
      </trkpt>
      <trkpt lat="44.36577" lon="4.82665">
        <ele>236.34</ele>
        <time>2021-11-30T08:37:19Z</time>
      </trkpt>
      <trkpt lat="44.36564" lon="4.82669">
        <ele>235.05</ele>
        <time>2021-11-30T08:37:39Z</time>
      </trkpt>
      <trkpt lat="44.36552" lon="4.82664">
        <ele>233.76</ele>
        <time>2021-11-30T08:37:59Z</time>
      </trkpt>
      <trkpt lat="44.36553" lon="4.82657">
        <ele>234.48</ele>
        <time>2021-11-30T08:38:22Z</time>
      </trkpt>
      <trkpt lat="44.3655" lon="4.82644">
        <ele>234.79</ele>
        <time>2021-11-30T08:38:43Z</time>
      </trkpt>
      <trkpt lat="44.36548" lon="4.82643">
        <ele>235.78</ele>
        <time>2021-11-30T08:39:13Z</time>
      </trkpt>
      <trkpt lat="44.36581" lon="4.8254">
        <ele>248.38</ele>
        <time>2021-11-30T08:42:54Z</time>
      </trkpt>
      <trkpt lat="44.36579" lon="4.82527">
        <ele>248.42</ele>
        <time>2021-11-30T08:43:13Z</time>
      </trkpt>
      <trkpt lat="44.36586" lon="4.82501">
        <ele>248.7</ele>
        <time>2021-11-30T08:43:31Z</time>
      </trkpt>
      <trkpt lat="44.36591" lon="4.82483">
        <ele>247.58</ele>
        <time>2021-11-30T08:43:51Z</time>
      </trkpt>
      <trkpt lat="44.36597" lon="4.82459">
        <ele>247.33</ele>
        <time>2021-11-30T08:44:08Z</time>
      </trkpt>
      <trkpt lat="44.36595" lon="4.82448">
        <ele>246.81</ele>
        <time>2021-11-30T08:44:20Z</time>
      </trkpt>
      <trkpt lat="44.36589" lon="4.82444">
        <ele>246.59</ele>
        <time>2021-11-30T08:44:24Z</time>
      </trkpt>
      <trkpt lat="44.36577" lon="4.82442">
        <ele>246.47</ele>
        <time>2021-11-30T08:44:35Z</time>
      </trkpt>
      <trkpt lat="44.36564" lon="4.82445">
        <ele>245.94</ele>
        <time>2021-11-30T08:44:48Z</time>
      </trkpt>
      <trkpt lat="44.36537" lon="4.82457">
        <ele>245.07</ele>
        <time>2021-11-30T08:45:12Z</time>
      </trkpt>
      <trkpt lat="44.36517" lon="4.82471">
        <ele>243.07</ele>
        <time>2021-11-30T08:45:31Z</time>
      </trkpt>
      <trkpt lat="44.3651" lon="4.82474">
        <ele>242.56</ele>
        <time>2021-11-30T08:45:40Z</time>
      </trkpt>
      <trkpt lat="44.36487" lon="4.82475">
        <ele>239.53</ele>
        <time>2021-11-30T08:46:04Z</time>
      </trkpt>
      <trkpt lat="44.36472" lon="4.82468">
        <ele>238</ele>
        <time>2021-11-30T08:46:21Z</time>
      </trkpt>
      <trkpt lat="44.36452" lon="4.82456">
        <ele>236.63</ele>
        <time>2021-11-30T08:46:42Z</time>
      </trkpt>
      <trkpt lat="44.36446" lon="4.82451">
        <ele>235.4</ele>
        <time>2021-11-30T08:47:02Z</time>
      </trkpt>
      <trkpt lat="44.3645" lon="4.82447">
        <ele>235.46</ele>
        <time>2021-11-30T08:47:34Z</time>
      </trkpt>
      <trkpt lat="44.3645" lon="4.82451">
        <ele>235.59</ele>
        <time>2021-11-30T08:48:01Z</time>
      </trkpt>
      <trkpt lat="44.36452" lon="4.82454">
        <ele>237.44</ele>
        <time>2021-11-30T08:50:00Z</time>
      </trkpt>
      <trkpt lat="44.36445" lon="4.82458">
        <ele>236.38</ele>
        <time>2021-11-30T08:50:12Z</time>
      </trkpt>
      <trkpt lat="44.36438" lon="4.8248">
        <ele>233.28</ele>
        <time>2021-11-30T08:50:31Z</time>
      </trkpt>
      <trkpt lat="44.36437" lon="4.82499">
        <ele>231.94</ele>
        <time>2021-11-30T08:50:45Z</time>
      </trkpt>
      <trkpt lat="44.36429" lon="4.8252">
        <ele>229.43</ele>
        <time>2021-11-30T08:51:00Z</time>
      </trkpt>
      <trkpt lat="44.36426" lon="4.82537">
        <ele>227.56</ele>
        <time>2021-11-30T08:51:15Z</time>
      </trkpt>
      <trkpt lat="44.36416" lon="4.82555">
        <ele>226.71</ele>
        <time>2021-11-30T08:51:32Z</time>
      </trkpt>
      <trkpt lat="44.364" lon="4.82569">
        <ele>225.16</ele>
        <time>2021-11-30T08:51:49Z</time>
      </trkpt>
      <trkpt lat="44.36396" lon="4.82575">
        <ele>225.27</ele>
        <time>2021-11-30T08:52:04Z</time>
      </trkpt>
      <trkpt lat="44.36384" lon="4.82588">
        <ele>223.68</ele>
        <time>2021-11-30T08:52:20Z</time>
      </trkpt>
      <trkpt lat="44.36367" lon="4.82595">
        <ele>221.39</ele>
        <time>2021-11-30T08:52:41Z</time>
      </trkpt>
      <trkpt lat="44.36358" lon="4.82598">
        <ele>220.26</ele>
        <time>2021-11-30T08:52:50Z</time>
      </trkpt>
      <trkpt lat="44.36343" lon="4.82603">
        <ele>219.29</ele>
        <time>2021-11-30T08:53:05Z</time>
      </trkpt>
      <trkpt lat="44.36327" lon="4.82614">
        <ele>216.65</ele>
        <time>2021-11-30T08:53:24Z</time>
      </trkpt>
      <trkpt lat="44.3632" lon="4.82617">
        <ele>215.17</ele>
        <time>2021-11-30T08:53:40Z</time>
      </trkpt>
      <trkpt lat="44.36307" lon="4.82623">
        <ele>213.91</ele>
        <time>2021-11-30T08:53:58Z</time>
      </trkpt>
      <trkpt lat="44.36293" lon="4.82625">
        <ele>211.67</ele>
        <time>2021-11-30T08:54:16Z</time>
      </trkpt>
      <trkpt lat="44.3628" lon="4.8262">
        <ele>209.27</ele>
        <time>2021-11-30T08:54:33Z</time>
      </trkpt>
      <trkpt lat="44.36276" lon="4.82616">
        <ele>208.73</ele>
        <time>2021-11-30T08:54:38Z</time>
      </trkpt>
      <trkpt lat="44.36267" lon="4.82614">
        <ele>207.62</ele>
        <time>2021-11-30T08:54:50Z</time>
      </trkpt>
      <trkpt lat="44.36265" lon="4.82635">
        <ele>204.89</ele>
        <time>2021-11-30T08:55:13Z</time>
      </trkpt>
      <trkpt lat="44.36264" lon="4.8264">
        <ele>204.5</ele>
        <time>2021-11-30T08:55:16Z</time>
      </trkpt>
      <trkpt lat="44.36256" lon="4.82651">
        <ele>202.83</ele>
        <time>2021-11-30T08:55:31Z</time>
      </trkpt>
      <trkpt lat="44.3625" lon="4.82656">
        <ele>200.32</ele>
        <time>2021-11-30T08:55:45Z</time>
      </trkpt>
      <trkpt lat="44.36235" lon="4.82662">
        <ele>198.04</ele>
        <time>2021-11-30T08:56:04Z</time>
      </trkpt>
      <trkpt lat="44.36216" lon="4.82664">
        <ele>195.82</ele>
        <time>2021-11-30T08:56:26Z</time>
      </trkpt>
      <trkpt lat="44.36208" lon="4.82664">
        <ele>194.35</ele>
        <time>2021-11-30T08:56:37Z</time>
      </trkpt>
      <trkpt lat="44.36195" lon="4.82664">
        <ele>191.86</ele>
        <time>2021-11-30T08:57:01Z</time>
      </trkpt>
      <trkpt lat="44.3619" lon="4.82664">
        <ele>191.54</ele>
        <time>2021-11-30T08:57:08Z</time>
      </trkpt>
      <trkpt lat="44.36179" lon="4.8266">
        <ele>190.81</ele>
        <time>2021-11-30T08:57:23Z</time>
      </trkpt>
      <trkpt lat="44.36177" lon="4.82651">
        <ele>190.4</ele>
        <time>2021-11-30T08:57:33Z</time>
      </trkpt>
      <trkpt lat="44.36169" lon="4.82642">
        <ele>189.22</ele>
        <time>2021-11-30T08:57:51Z</time>
      </trkpt>
      <trkpt lat="44.36157" lon="4.82624">
        <ele>186.94</ele>
        <time>2021-11-30T08:58:12Z</time>
      </trkpt>
      <trkpt lat="44.3615" lon="4.82612">
        <ele>186.04</ele>
        <time>2021-11-30T08:58:25Z</time>
      </trkpt>
      <trkpt lat="44.36137" lon="4.82608">
        <ele>184.71</ele>
        <time>2021-11-30T08:58:37Z</time>
      </trkpt>
      <trkpt lat="44.3613" lon="4.82609">
        <ele>183.44</ele>
        <time>2021-11-30T08:58:48Z</time>
      </trkpt>
      <trkpt lat="44.36124" lon="4.82622">
        <ele>183.1</ele>
        <time>2021-11-30T08:59:07Z</time>
      </trkpt>
      <trkpt lat="44.36117" lon="4.82636">
        <ele>181.88</ele>
        <time>2021-11-30T08:59:25Z</time>
      </trkpt>
      <trkpt lat="44.36117" lon="4.82646">
        <ele>181.59</ele>
        <time>2021-11-30T08:59:35Z</time>
      </trkpt>
      <trkpt lat="44.36111" lon="4.82666">
        <ele>180.57</ele>
        <time>2021-11-30T08:59:52Z</time>
      </trkpt>
      <trkpt lat="44.36108" lon="4.82675">
        <ele>180.05</ele>
        <time>2021-11-30T08:59:58Z</time>
      </trkpt>
      <trkpt lat="44.36096" lon="4.82696">
        <ele>178.92</ele>
        <time>2021-11-30T09:00:15Z</time>
      </trkpt>
      <trkpt lat="44.36086" lon="4.82702">
        <ele>178.07</ele>
        <time>2021-11-30T09:00:32Z</time>
      </trkpt>
      <trkpt lat="44.3608" lon="4.82701">
        <ele>178.44</ele>
        <time>2021-11-30T09:00:58Z</time>
      </trkpt>
      <trkpt lat="44.35819" lon="4.82683">
        <ele>155.48</ele>
        <time>2021-11-30T09:06:35Z</time>
      </trkpt>
      <trkpt lat="44.35807" lon="4.82697">
        <ele>155.03</ele>
        <time>2021-11-30T09:06:48Z</time>
      </trkpt>
      <trkpt lat="44.35797" lon="4.82707">
        <ele>154.85</ele>
        <time>2021-11-30T09:07:01Z</time>
      </trkpt>
      <trkpt lat="44.3579" lon="4.82711">
        <ele>154.21</ele>
        <time>2021-11-30T09:07:10Z</time>
      </trkpt>
      <trkpt lat="44.35775" lon="4.82713">
        <ele>153.52</ele>
        <time>2021-11-30T09:07:25Z</time>
      </trkpt>
      <trkpt lat="44.35758" lon="4.82711">
        <ele>152.51</ele>
        <time>2021-11-30T09:07:40Z</time>
      </trkpt>
      <trkpt lat="44.35735" lon="4.82711">
        <ele>149.88</ele>
        <time>2021-11-30T09:08:04Z</time>
      </trkpt>
      <trkpt lat="44.35719" lon="4.82721">
        <ele>147.71</ele>
        <time>2021-11-30T09:08:24Z</time>
      </trkpt>
      <trkpt lat="44.357" lon="4.82726">
        <ele>145.41</ele>
        <time>2021-11-30T09:08:43Z</time>
      </trkpt>
      <trkpt lat="44.35684" lon="4.82713">
        <ele>143.51</ele>
        <time>2021-11-30T09:09:03Z</time>
      </trkpt>
      <trkpt lat="44.35663" lon="4.82718">
        <ele>141.46</ele>
        <time>2021-11-30T09:09:25Z</time>
      </trkpt>
      <trkpt lat="44.35643" lon="4.8272">
        <ele>140.26</ele>
        <time>2021-11-30T09:09:45Z</time>
      </trkpt>
      <trkpt lat="44.35617" lon="4.82722">
        <ele>140.95</ele>
        <time>2021-11-30T09:10:09Z</time>
      </trkpt>
      <trkpt lat="44.35599" lon="4.82727">
        <ele>140.55</ele>
        <time>2021-11-30T09:10:27Z</time>
      </trkpt>
      <trkpt lat="44.35586" lon="4.82734">
        <ele>139.23</ele>
        <time>2021-11-30T09:10:39Z</time>
      </trkpt>
      <trkpt lat="44.35572" lon="4.82733">
        <ele>138.63</ele>
        <time>2021-11-30T09:10:51Z</time>
      </trkpt>
      <trkpt lat="44.35552" lon="4.82733">
        <ele>137.58</ele>
        <time>2021-11-30T09:11:08Z</time>
      </trkpt>
      <trkpt lat="44.35532" lon="4.82738">
        <ele>136.35</ele>
        <time>2021-11-30T09:11:28Z</time>
      </trkpt>
      <trkpt lat="44.35521" lon="4.82737">
        <ele>136.06</ele>
        <time>2021-11-30T09:11:37Z</time>
      </trkpt>
      <trkpt lat="44.35505" lon="4.82737">
        <ele>135.37</ele>
        <time>2021-11-30T09:11:51Z</time>
      </trkpt>
      <trkpt lat="44.35501" lon="4.82737">
        <ele>135.25</ele>
        <time>2021-11-30T09:11:54Z</time>
      </trkpt>
      <trkpt lat="44.35495" lon="4.82735">
        <ele>135.07</ele>
        <time>2021-11-30T09:11:59Z</time>
      </trkpt>
      <trkpt lat="44.3549" lon="4.82732">
        <ele>134.8</ele>
        <time>2021-11-30T09:12:03Z</time>
      </trkpt>
      <trkpt lat="44.35488" lon="4.82732">
        <ele>134.64</ele>
        <time>2021-11-30T09:12:05Z</time>
      </trkpt>
      <trkpt lat="44.35472" lon="4.82728">
        <ele>133.14</ele>
        <time>2021-11-30T09:12:20Z</time>
      </trkpt>
      <trkpt lat="44.35454" lon="4.82728">
        <ele>131.15</ele>
        <time>2021-11-30T09:12:39Z</time>
      </trkpt>
      <trkpt lat="44.35439" lon="4.82721">
        <ele>130.29</ele>
        <time>2021-11-30T09:12:56Z</time>
      </trkpt>
      <trkpt lat="44.35422" lon="4.82705">
        <ele>130.2</ele>
        <time>2021-11-30T09:13:19Z</time>
      </trkpt>
      <trkpt lat="44.35421" lon="4.82702">
        <ele>130.27</ele>
        <time>2021-11-30T09:13:21Z</time>
      </trkpt>
      <trkpt lat="44.35408" lon="4.82692">
        <ele>130.25</ele>
        <time>2021-11-30T09:13:41Z</time>
      </trkpt>
      <trkpt lat="44.35404" lon="4.82687">
        <ele>130.62</ele>
        <time>2021-11-30T09:14:02Z</time>
      </trkpt>
      <trkpt lat="44.35402" lon="4.82688">
        <ele>130.64</ele>
        <time>2021-11-30T09:14:10Z</time>
      </trkpt>
      <trkpt lat="44.35387" lon="4.8263">
        <ele>133.12</ele>
        <time>2021-11-30T09:17:05Z</time>
      </trkpt>
      <trkpt lat="44.35384" lon="4.82604">
        <ele>133.83</ele>
        <time>2021-11-30T09:17:22Z</time>
      </trkpt>
      <trkpt lat="44.35382" lon="4.82568">
        <ele>133.46</ele>
        <time>2021-11-30T09:17:43Z</time>
      </trkpt>
      <trkpt lat="44.35384" lon="4.82563">
        <ele>133.41</ele>
        <time>2021-11-30T09:17:46Z</time>
      </trkpt>
      <trkpt lat="44.3539" lon="4.82541">
        <ele>133.89</ele>
        <time>2021-11-30T09:18:04Z</time>
      </trkpt>
      <trkpt lat="44.35382" lon="4.82526">
        <ele>134.38</ele>
        <time>2021-11-30T09:18:20Z</time>
      </trkpt>
      <trkpt lat="44.35378" lon="4.82508">
        <ele>135.99</ele>
        <time>2021-11-30T09:18:35Z</time>
      </trkpt>
      <trkpt lat="44.35382" lon="4.82497">
        <ele>136.79</ele>
        <time>2021-11-30T09:18:45Z</time>
      </trkpt>
      <trkpt lat="44.35391" lon="4.82482">
        <ele>138.34</ele>
        <time>2021-11-30T09:18:59Z</time>
      </trkpt>
      <trkpt lat="44.35393" lon="4.82478">
        <ele>138.71</ele>
        <time>2021-11-30T09:19:02Z</time>
      </trkpt>
      <trkpt lat="44.354" lon="4.8246">
        <ele>141.84</ele>
        <time>2021-11-30T09:19:21Z</time>
      </trkpt>
      <trkpt lat="44.35403" lon="4.82445">
        <ele>143.37</ele>
        <time>2021-11-30T09:19:31Z</time>
      </trkpt>
      <trkpt lat="44.35405" lon="4.82439">
        <ele>144.07</ele>
        <time>2021-11-30T09:19:37Z</time>
      </trkpt>
      <trkpt lat="44.3541" lon="4.82427">
        <ele>145.82</ele>
        <time>2021-11-30T09:19:54Z</time>
      </trkpt>
      <trkpt lat="44.35412" lon="4.82416">
        <ele>147.05</ele>
        <time>2021-11-30T09:20:03Z</time>
      </trkpt>
      <trkpt lat="44.35416" lon="4.82404">
        <ele>147.91</ele>
        <time>2021-11-30T09:20:13Z</time>
      </trkpt>
      <trkpt lat="44.35429" lon="4.8239">
        <ele>149.58</ele>
        <time>2021-11-30T09:20:27Z</time>
      </trkpt>
      <trkpt lat="44.35439" lon="4.8238">
        <ele>151.7</ele>
        <time>2021-11-30T09:20:43Z</time>
      </trkpt>
      <trkpt lat="44.35446" lon="4.82388">
        <ele>153</ele>
        <time>2021-11-30T09:20:56Z</time>
      </trkpt>
      <trkpt lat="44.35452" lon="4.82388">
        <ele>154.79</ele>
        <time>2021-11-30T09:21:14Z</time>
      </trkpt>
      <trkpt lat="44.35462" lon="4.82373">
        <ele>157.39</ele>
        <time>2021-11-30T09:21:33Z</time>
      </trkpt>
      <trkpt lat="44.35468" lon="4.82359">
        <ele>158.78</ele>
        <time>2021-11-30T09:21:50Z</time>
      </trkpt>
      <trkpt lat="44.35475" lon="4.8235">
        <ele>159.55</ele>
        <time>2021-11-30T09:21:59Z</time>
      </trkpt>
      <trkpt lat="44.35483" lon="4.82336">
        <ele>160.87</ele>
        <time>2021-11-30T09:22:12Z</time>
      </trkpt>
      <trkpt lat="44.35484" lon="4.82335">
        <ele>160.98</ele>
        <time>2021-11-30T09:22:13Z</time>
      </trkpt>
      <trkpt lat="44.35487" lon="4.82323">
        <ele>161.85</ele>
        <time>2021-11-30T09:22:22Z</time>
      </trkpt>
      <trkpt lat="44.35494" lon="4.82304">
        <ele>163.33</ele>
        <time>2021-11-30T09:22:35Z</time>
      </trkpt>
      <trkpt lat="44.35501" lon="4.8229">
        <ele>165.26</ele>
        <time>2021-11-30T09:22:47Z</time>
      </trkpt>
      <trkpt lat="44.35503" lon="4.82288">
        <ele>165.43</ele>
        <time>2021-11-30T09:22:49Z</time>
      </trkpt>
      <trkpt lat="44.35513" lon="4.82266">
        <ele>166.51</ele>
        <time>2021-11-30T09:23:07Z</time>
      </trkpt>
      <trkpt lat="44.35523" lon="4.8225">
        <ele>168.1</ele>
        <time>2021-11-30T09:23:23Z</time>
      </trkpt>
      <trkpt lat="44.3553" lon="4.82234">
        <ele>170.08</ele>
        <time>2021-11-30T09:23:37Z</time>
      </trkpt>
      <trkpt lat="44.35542" lon="4.8221">
        <ele>172.39</ele>
        <time>2021-11-30T09:23:57Z</time>
      </trkpt>
      <trkpt lat="44.35555" lon="4.8219">
        <ele>175.5</ele>
        <time>2021-11-30T09:24:17Z</time>
      </trkpt>
      <trkpt lat="44.35564" lon="4.82175">
        <ele>178.07</ele>
        <time>2021-11-30T09:24:36Z</time>
      </trkpt>
      <trkpt lat="44.35569" lon="4.82145">
        <ele>180.81</ele>
        <time>2021-11-30T09:24:57Z</time>
      </trkpt>
      <trkpt lat="44.35584" lon="4.82125">
        <ele>182.9</ele>
        <time>2021-11-30T09:25:18Z</time>
      </trkpt>
      <trkpt lat="44.35592" lon="4.82112">
        <ele>183.68</ele>
        <time>2021-11-30T09:25:30Z</time>
      </trkpt>
      <trkpt lat="44.35606" lon="4.82091">
        <ele>185.23</ele>
        <time>2021-11-30T09:25:53Z</time>
      </trkpt>
      <trkpt lat="44.35612" lon="4.82081">
        <ele>186.24</ele>
        <time>2021-11-30T09:26:07Z</time>
      </trkpt>
      <trkpt lat="44.35618" lon="4.82079">
        <ele>186.43</ele>
        <time>2021-11-30T09:26:29Z</time>
      </trkpt>
      <trkpt lat="44.35621" lon="4.82081">
        <ele>186.42</ele>
        <time>2021-11-30T09:26:56Z</time>
      </trkpt>
      <trkpt lat="44.3562" lon="4.8208">
        <ele>186.21</ele>
        <time>2021-11-30T09:27:10Z</time>
      </trkpt>
      <trkpt lat="44.35644" lon="4.81985">
        <ele>198.87</ele>
        <time>2021-11-30T09:33:03Z</time>
      </trkpt>
      <trkpt lat="44.35651" lon="4.81971">
        <ele>200.22</ele>
        <time>2021-11-30T09:33:17Z</time>
      </trkpt>
      <trkpt lat="44.35663" lon="4.81954">
        <ele>202.28</ele>
        <time>2021-11-30T09:33:33Z</time>
      </trkpt>
      <trkpt lat="44.35684" lon="4.81945">
        <ele>203.15</ele>
        <time>2021-11-30T09:33:55Z</time>
      </trkpt>
      <trkpt lat="44.35703" lon="4.81933">
        <ele>206.07</ele>
        <time>2021-11-30T09:34:16Z</time>
      </trkpt>
      <trkpt lat="44.35721" lon="4.81927">
        <ele>209.11</ele>
        <time>2021-11-30T09:34:36Z</time>
      </trkpt>
      <trkpt lat="44.35726" lon="4.81926">
        <ele>212.18</ele>
        <time>2021-11-30T09:34:43Z</time>
      </trkpt>
      <trkpt lat="44.35727" lon="4.81926">
        <ele>212.18</ele>
        <time>2021-11-30T09:34:44Z</time>
      </trkpt>
      <trkpt lat="44.35729" lon="4.81925">
        <ele>213.42</ele>
        <time>2021-11-30T09:34:47Z</time>
      </trkpt>
      <trkpt lat="44.35743" lon="4.81919">
        <ele>216.26</ele>
        <time>2021-11-30T09:35:05Z</time>
      </trkpt>
      <trkpt lat="44.35753" lon="4.81915">
        <ele>219.43</ele>
        <time>2021-11-30T09:35:19Z</time>
      </trkpt>
      <trkpt lat="44.35766" lon="4.81906">
        <ele>222.83</ele>
        <time>2021-11-30T09:35:36Z</time>
      </trkpt>
      <trkpt lat="44.35778" lon="4.819">
        <ele>224.61</ele>
        <time>2021-11-30T09:35:53Z</time>
      </trkpt>
      <trkpt lat="44.35791" lon="4.81887">
        <ele>227.63</ele>
        <time>2021-11-30T09:36:11Z</time>
      </trkpt>
      <trkpt lat="44.35795" lon="4.81883">
        <ele>229.24</ele>
        <time>2021-11-30T09:36:16Z</time>
      </trkpt>
      <trkpt lat="44.3581" lon="4.8187">
        <ele>232.36</ele>
        <time>2021-11-30T09:36:36Z</time>
      </trkpt>
      <trkpt lat="44.35828" lon="4.81857">
        <ele>234.94</ele>
        <time>2021-11-30T09:36:57Z</time>
      </trkpt>
      <trkpt lat="44.35847" lon="4.81852">
        <ele>237.86</ele>
        <time>2021-11-30T09:37:16Z</time>
      </trkpt>
      <trkpt lat="44.35858" lon="4.81846">
        <ele>238.85</ele>
        <time>2021-11-30T09:37:37Z</time>
      </trkpt>
      <trkpt lat="44.35858" lon="4.81838">
        <ele>239.18</ele>
        <time>2021-11-30T09:37:50Z</time>
      </trkpt>
      <trkpt lat="44.35852" lon="4.8183">
        <ele>239.26</ele>
        <time>2021-11-30T09:38:24Z</time>
      </trkpt>
      <trkpt lat="44.35852" lon="4.8183">
        <ele>239.25</ele>
        <time>2021-11-30T09:38:28Z</time>
      </trkpt>
      <trkpt lat="44.35831" lon="4.81758">
        <ele>232.35</ele>
        <time>2021-11-30T09:42:13Z</time>
      </trkpt>
      <trkpt lat="44.35831" lon="4.81755">
        <ele>232.05</ele>
        <time>2021-11-30T09:42:15Z</time>
      </trkpt>
      <trkpt lat="44.35827" lon="4.81736">
        <ele>230.94</ele>
        <time>2021-11-30T09:42:27Z</time>
      </trkpt>
      <trkpt lat="44.35827" lon="4.81732">
        <ele>230.52</ele>
        <time>2021-11-30T09:42:29Z</time>
      </trkpt>
      <trkpt lat="44.35824" lon="4.81715">
        <ele>230.27</ele>
        <time>2021-11-30T09:42:40Z</time>
      </trkpt>
      <trkpt lat="44.35817" lon="4.81693">
        <ele>229.6</ele>
        <time>2021-11-30T09:42:57Z</time>
      </trkpt>
      <trkpt lat="44.35799" lon="4.81682">
        <ele>228.23</ele>
        <time>2021-11-30T09:43:15Z</time>
      </trkpt>
      <trkpt lat="44.35774" lon="4.81669">
        <ele>229.04</ele>
        <time>2021-11-30T09:43:35Z</time>
      </trkpt>
      <trkpt lat="44.35758" lon="4.81654">
        <ele>229.68</ele>
        <time>2021-11-30T09:43:51Z</time>
      </trkpt>
      <trkpt lat="44.35749" lon="4.81642">
        <ele>232.01</ele>
        <time>2021-11-30T09:44:01Z</time>
      </trkpt>
      <trkpt lat="44.35742" lon="4.81633">
        <ele>230.5</ele>
        <time>2021-11-30T09:44:11Z</time>
      </trkpt>
      <trkpt lat="44.35741" lon="4.81632">
        <ele>230.29</ele>
        <time>2021-11-30T09:44:12Z</time>
      </trkpt>
      <trkpt lat="44.35731" lon="4.81613">
        <ele>229.02</ele>
        <time>2021-11-30T09:44:29Z</time>
      </trkpt>
      <trkpt lat="44.35719" lon="4.81594">
        <ele>227.93</ele>
        <time>2021-11-30T09:44:48Z</time>
      </trkpt>
      <trkpt lat="44.35698" lon="4.81581">
        <ele>226.81</ele>
        <time>2021-11-30T09:45:09Z</time>
      </trkpt>
      <trkpt lat="44.35687" lon="4.81569">
        <ele>224.84</ele>
        <time>2021-11-30T09:45:21Z</time>
      </trkpt>
      <trkpt lat="44.35671" lon="4.81556">
        <ele>221.91</ele>
        <time>2021-11-30T09:45:38Z</time>
      </trkpt>
      <trkpt lat="44.35664" lon="4.81549">
        <ele>220.56</ele>
        <time>2021-11-30T09:45:47Z</time>
      </trkpt>
      <trkpt lat="44.35648" lon="4.81543">
        <ele>220.65</ele>
        <time>2021-11-30T09:46:02Z</time>
      </trkpt>
      <trkpt lat="44.35644" lon="4.81541">
        <ele>220.67</ele>
        <time>2021-11-30T09:46:24Z</time>
      </trkpt>
      <trkpt lat="44.35644" lon="4.81539">
        <ele>220.45</ele>
        <time>2021-11-30T09:46:33Z</time>
      </trkpt>
      <trkpt lat="44.35577" lon="4.81493">
        <ele>210.21</ele>
        <time>2021-11-30T09:48:52Z</time>
      </trkpt>
      <trkpt lat="44.3557" lon="4.81479">
        <ele>209.23</ele>
        <time>2021-11-30T09:49:05Z</time>
      </trkpt>
      <trkpt lat="44.35561" lon="4.81466">
        <ele>207.03</ele>
        <time>2021-11-30T09:49:22Z</time>
      </trkpt>
      <trkpt lat="44.35546" lon="4.81449">
        <ele>204.96</ele>
        <time>2021-11-30T09:49:41Z</time>
      </trkpt>
      <trkpt lat="44.35531" lon="4.81431">
        <ele>201.95</ele>
        <time>2021-11-30T09:49:59Z</time>
      </trkpt>
      <trkpt lat="44.35522" lon="4.81425">
        <ele>200.9</ele>
        <time>2021-11-30T09:50:08Z</time>
      </trkpt>
      <trkpt lat="44.35503" lon="4.81421">
        <ele>198.66</ele>
        <time>2021-11-30T09:50:24Z</time>
      </trkpt>
      <trkpt lat="44.35495" lon="4.81419">
        <ele>197.14</ele>
        <time>2021-11-30T09:50:32Z</time>
      </trkpt>
      <trkpt lat="44.35485" lon="4.81417">
        <ele>196.14</ele>
        <time>2021-11-30T09:50:41Z</time>
      </trkpt>
      <trkpt lat="44.35474" lon="4.81414">
        <ele>195.05</ele>
        <time>2021-11-30T09:50:51Z</time>
      </trkpt>
      <trkpt lat="44.35463" lon="4.81413">
        <ele>194.47</ele>
        <time>2021-11-30T09:51:02Z</time>
      </trkpt>
      <trkpt lat="44.35444" lon="4.8141">
        <ele>192.03</ele>
        <time>2021-11-30T09:51:19Z</time>
      </trkpt>
      <trkpt lat="44.35438" lon="4.81409">
        <ele>191.14</ele>
        <time>2021-11-30T09:51:24Z</time>
      </trkpt>
      <trkpt lat="44.35425" lon="4.8141">
        <ele>191.03</ele>
        <time>2021-11-30T09:51:38Z</time>
      </trkpt>
      <trkpt lat="44.3541" lon="4.8141">
        <ele>188.86</ele>
        <time>2021-11-30T09:51:57Z</time>
      </trkpt>
      <trkpt lat="44.35401" lon="4.81414">
        <ele>186.79</ele>
        <time>2021-11-30T09:52:07Z</time>
      </trkpt>
      <trkpt lat="44.35385" lon="4.81424">
        <ele>184.69</ele>
        <time>2021-11-30T09:52:24Z</time>
      </trkpt>
      <trkpt lat="44.35372" lon="4.81425">
        <ele>181.61</ele>
        <time>2021-11-30T09:52:39Z</time>
      </trkpt>
      <trkpt lat="44.35362" lon="4.81428">
        <ele>178.54</ele>
        <time>2021-11-30T09:52:52Z</time>
      </trkpt>
      <trkpt lat="44.35351" lon="4.81424">
        <ele>176.53</ele>
        <time>2021-11-30T09:53:13Z</time>
      </trkpt>
      <trkpt lat="44.35345" lon="4.81421">
        <ele>174.88</ele>
        <time>2021-11-30T09:53:23Z</time>
      </trkpt>
      <trkpt lat="44.35334" lon="4.81419">
        <ele>173.01</ele>
        <time>2021-11-30T09:53:45Z</time>
      </trkpt>
      <trkpt lat="44.35324" lon="4.81424">
        <ele>170.41</ele>
        <time>2021-11-30T09:54:02Z</time>
      </trkpt>
      <trkpt lat="44.35311" lon="4.81421">
        <ele>167.75</ele>
        <time>2021-11-30T09:54:21Z</time>
      </trkpt>
      <trkpt lat="44.35297" lon="4.81418">
        <ele>164.67</ele>
        <time>2021-11-30T09:54:39Z</time>
      </trkpt>
      <trkpt lat="44.35292" lon="4.81409">
        <ele>162.36</ele>
        <time>2021-11-30T09:54:55Z</time>
      </trkpt>
      <trkpt lat="44.35291" lon="4.81391">
        <ele>160.52</ele>
        <time>2021-11-30T09:55:16Z</time>
      </trkpt>
      <trkpt lat="44.35282" lon="4.81386">
        <ele>157.59</ele>
        <time>2021-11-30T09:55:29Z</time>
      </trkpt>
      <trkpt lat="44.35273" lon="4.81383">
        <ele>155.16</ele>
        <time>2021-11-30T09:55:47Z</time>
      </trkpt>
      <trkpt lat="44.35262" lon="4.81381">
        <ele>154.85</ele>
        <time>2021-11-30T09:56:03Z</time>
      </trkpt>
      <trkpt lat="44.35258" lon="4.81381">
        <ele>153.76</ele>
        <time>2021-11-30T09:56:26Z</time>
      </trkpt>
      <trkpt lat="44.35251" lon="4.81369">
        <ele>150.65</ele>
        <time>2021-11-30T09:56:46Z</time>
      </trkpt>
      <trkpt lat="44.35247" lon="4.81365">
        <ele>149.05</ele>
        <time>2021-11-30T09:56:57Z</time>
      </trkpt>
      <trkpt lat="44.35244" lon="4.8137">
        <ele>149.55</ele>
        <time>2021-11-30T09:57:09Z</time>
      </trkpt>
      <trkpt lat="44.35243" lon="4.8138">
        <ele>152.7</ele>
        <time>2021-11-30T09:57:21Z</time>
      </trkpt>
      <trkpt lat="44.35242" lon="4.81384">
        <ele>153.25</ele>
        <time>2021-11-30T09:57:41Z</time>
      </trkpt>
      <trkpt lat="44.35243" lon="4.81396">
        <ele>153.54</ele>
        <time>2021-11-30T09:57:58Z</time>
      </trkpt>
      <trkpt lat="44.35246" lon="4.81405">
        <ele>154.16</ele>
        <time>2021-11-30T09:58:17Z</time>
      </trkpt>
      <trkpt lat="44.3525" lon="4.81412">
        <ele>155.65</ele>
        <time>2021-11-30T09:58:37Z</time>
      </trkpt>
      <trkpt lat="44.35249" lon="4.81424">
        <ele>156</ele>
        <time>2021-11-30T09:58:54Z</time>
      </trkpt>
      <trkpt lat="44.35251" lon="4.81426">
        <ele>155.53</ele>
        <time>2021-11-30T09:59:25Z</time>
      </trkpt>
      <trkpt lat="44.35251" lon="4.81431">
        <ele>155.48</ele>
        <time>2021-11-30T09:59:48Z</time>
      </trkpt>
      <trkpt lat="44.35252" lon="4.81428">
        <ele>156.14</ele>
        <time>2021-11-30T10:00:13Z</time>
      </trkpt>
      <trkpt lat="44.35282" lon="4.81627">
        <ele>148.79</ele>
        <time>2021-11-30T10:06:48Z</time>
      </trkpt>
      <trkpt lat="44.3529" lon="4.8163">
        <ele>150.59</ele>
        <time>2021-11-30T10:07:07Z</time>
      </trkpt>
      <trkpt lat="44.35299" lon="4.81639">
        <ele>150.17</ele>
        <time>2021-11-30T10:07:27Z</time>
      </trkpt>
      <trkpt lat="44.35301" lon="4.81642">
        <ele>149.82</ele>
        <time>2021-11-30T10:07:34Z</time>
      </trkpt>
      <trkpt lat="44.35307" lon="4.81639">
        <ele>151.3</ele>
        <time>2021-11-30T10:07:47Z</time>
      </trkpt>
      <trkpt lat="44.35311" lon="4.81647">
        <ele>152.39</ele>
        <time>2021-11-30T10:08:06Z</time>
      </trkpt>
      <trkpt lat="44.35318" lon="4.81649">
        <ele>153.64</ele>
        <time>2021-11-30T10:08:29Z</time>
      </trkpt>
      <trkpt lat="44.35325" lon="4.81655">
        <ele>154.36</ele>
        <time>2021-11-30T10:08:51Z</time>
      </trkpt>
      <trkpt lat="44.35328" lon="4.81657">
        <ele>155.02</ele>
        <time>2021-11-30T10:09:16Z</time>
      </trkpt>
      <trkpt lat="44.35328" lon="4.81657">
        <ele>154.98</ele>
        <time>2021-11-30T10:09:39Z</time>
      </trkpt>
      <trkpt lat="44.35328" lon="4.81657">
        <ele>155.15</ele>
        <time>2021-11-30T10:09:43Z</time>
      </trkpt>
      <trkpt lat="44.35319" lon="4.81865">
        <ele>166.34</ele>
        <time>2021-11-30T10:25:56Z</time>
      </trkpt>
      <trkpt lat="44.35305" lon="4.81871">
        <ele>163.65</ele>
        <time>2021-11-30T10:26:19Z</time>
      </trkpt>
      <trkpt lat="44.35297" lon="4.81871">
        <ele>162.06</ele>
        <time>2021-11-30T10:26:41Z</time>
      </trkpt>
      <trkpt lat="44.35291" lon="4.81867">
        <ele>161.13</ele>
        <time>2021-11-30T10:26:59Z</time>
      </trkpt>
      <trkpt lat="44.35289" lon="4.81867">
        <ele>160.97</ele>
        <time>2021-11-30T10:27:04Z</time>
      </trkpt>
      <trkpt lat="44.35113" lon="4.81879">
        <ele>134.67</ele>
        <time>2021-11-30T10:33:41Z</time>
      </trkpt>
      <trkpt lat="44.351" lon="4.81881">
        <ele>133.51</ele>
        <time>2021-11-30T10:33:59Z</time>
      </trkpt>
      <trkpt lat="44.35093" lon="4.81886">
        <ele>133.56</ele>
        <time>2021-11-30T10:34:15Z</time>
      </trkpt>
      <trkpt lat="44.35079" lon="4.81894">
        <ele>133.2</ele>
        <time>2021-11-30T10:34:32Z</time>
      </trkpt>
      <trkpt lat="44.35075" lon="4.81903">
        <ele>132.65</ele>
        <time>2021-11-30T10:34:50Z</time>
      </trkpt>
      <trkpt lat="44.35066" lon="4.81909">
        <ele>132.37</ele>
        <time>2021-11-30T10:35:06Z</time>
      </trkpt>
      <trkpt lat="44.35063" lon="4.81916">
        <ele>131.83</ele>
        <time>2021-11-30T10:35:25Z</time>
      </trkpt>
      <trkpt lat="44.35062" lon="4.81918">
        <ele>131.31</ele>
        <time>2021-11-30T10:35:54Z</time>
      </trkpt>
      <trkpt lat="44.35061" lon="4.81922">
        <ele>131.21</ele>
        <time>2021-11-30T10:36:17Z</time>
      </trkpt>
      <trkpt lat="44.35059" lon="4.81939">
        <ele>129.99</ele>
        <time>2021-11-30T10:36:39Z</time>
      </trkpt>
      <trkpt lat="44.35058" lon="4.81955">
        <ele>129.1</ele>
        <time>2021-11-30T10:36:54Z</time>
      </trkpt>
      <trkpt lat="44.35058" lon="4.81972">
        <ele>127.79</ele>
        <time>2021-11-30T10:37:12Z</time>
      </trkpt>
      <trkpt lat="44.35062" lon="4.8199">
        <ele>127.45</ele>
        <time>2021-11-30T10:37:30Z</time>
      </trkpt>
      <trkpt lat="44.3507" lon="4.82006">
        <ele>126.01</ele>
        <time>2021-11-30T10:37:50Z</time>
      </trkpt>
      <trkpt lat="44.35077" lon="4.8202">
        <ele>125.41</ele>
        <time>2021-11-30T10:38:07Z</time>
      </trkpt>
      <trkpt lat="44.35077" lon="4.82033">
        <ele>126.93</ele>
        <time>2021-11-30T10:38:22Z</time>
      </trkpt>
      <trkpt lat="44.3508" lon="4.82049">
        <ele>126.27</ele>
        <time>2021-11-30T10:38:44Z</time>
      </trkpt>
      <trkpt lat="44.35074" lon="4.82071">
        <ele>125.74</ele>
        <time>2021-11-30T10:39:03Z</time>
      </trkpt>
      <trkpt lat="44.35074" lon="4.82087">
        <ele>126.2</ele>
        <time>2021-11-30T10:39:25Z</time>
      </trkpt>
      <trkpt lat="44.35076" lon="4.82107">
        <ele>126</ele>
        <time>2021-11-30T10:39:48Z</time>
      </trkpt>
      <trkpt lat="44.35076" lon="4.82111">
        <ele>125.15</ele>
        <time>2021-11-30T10:39:54Z</time>
      </trkpt>
      <trkpt lat="44.35074" lon="4.82115">
        <ele>125.08</ele>
        <time>2021-11-30T10:40:15Z</time>
      </trkpt>
      <trkpt lat="44.35064" lon="4.82121">
        <ele>124.85</ele>
        <time>2021-11-30T10:40:35Z</time>
      </trkpt>
      <trkpt lat="44.35064" lon="4.8212">
        <ele>124.49</ele>
        <time>2021-11-30T10:40:49Z</time>
      </trkpt>
      <trkpt lat="44.34996" lon="4.82132">
        <ele>122.63</ele>
        <time>2021-11-30T10:43:30Z</time>
      </trkpt>
      <trkpt lat="44.34988" lon="4.82135">
        <ele>124</ele>
        <time>2021-11-30T10:43:58Z</time>
      </trkpt>
      <trkpt lat="44.34989" lon="4.82133">
        <ele>123.5</ele>
        <time>2021-11-30T10:44:10Z</time>
      </trkpt>
      <trkpt lat="44.34989" lon="4.82141">
        <ele>122.45</ele>
        <time>2021-11-30T10:44:36Z</time>
      </trkpt>
      <trkpt lat="44.34991" lon="4.82134">
        <ele>122.64</ele>
        <time>2021-11-30T10:44:50Z</time>
      </trkpt>
      <trkpt lat="44.3499" lon="4.82132">
        <ele>123.26</ele>
        <time>2021-11-30T10:44:53Z</time>
      </trkpt>
      <trkpt lat="44.34987" lon="4.82137">
        <ele>123.08</ele>
        <time>2021-11-30T10:45:13Z</time>
      </trkpt>
      <trkpt lat="44.34981" lon="4.82148">
        <ele>122.23</ele>
        <time>2021-11-30T10:45:25Z</time>
      </trkpt>
      <trkpt lat="44.34985" lon="4.82152">
        <ele>121.25</ele>
        <time>2021-11-30T10:45:35Z</time>
      </trkpt>
      <trkpt lat="44.34988" lon="4.8216">
        <ele>122.38</ele>
        <time>2021-11-30T10:45:49Z</time>
      </trkpt>
      <trkpt lat="44.34986" lon="4.82163">
        <ele>122.11</ele>
        <time>2021-11-30T10:46:16Z</time>
      </trkpt>
      <trkpt lat="44.34967" lon="4.82129">
        <ele>118.72</ele>
        <time>2021-11-30T11:32:10Z</time>
      </trkpt>
      <trkpt lat="44.34949" lon="4.82131">
        <ele>117.08</ele>
        <time>2021-11-30T11:32:29Z</time>
      </trkpt>
      <trkpt lat="44.34935" lon="4.82136">
        <ele>116.23</ele>
        <time>2021-11-30T11:32:46Z</time>
      </trkpt>
      <trkpt lat="44.34931" lon="4.82123">
        <ele>115.14</ele>
        <time>2021-11-30T11:33:03Z</time>
      </trkpt>
      <trkpt lat="44.34928" lon="4.82104">
        <ele>114.88</ele>
        <time>2021-11-30T11:33:21Z</time>
      </trkpt>
      <trkpt lat="44.34924" lon="4.82077">
        <ele>114.57</ele>
        <time>2021-11-30T11:33:40Z</time>
      </trkpt>
      <trkpt lat="44.34924" lon="4.82076">
        <ele>114.85</ele>
        <time>2021-11-30T11:33:41Z</time>
      </trkpt>
      <trkpt lat="44.34924" lon="4.82048">
        <ele>115.34</ele>
        <time>2021-11-30T11:33:58Z</time>
      </trkpt>
      <trkpt lat="44.34927" lon="4.82019">
        <ele>114.53</ele>
        <time>2021-11-30T11:34:16Z</time>
      </trkpt>
      <trkpt lat="44.34927" lon="4.81997">
        <ele>114.42</ele>
        <time>2021-11-30T11:34:29Z</time>
      </trkpt>
      <trkpt lat="44.34929" lon="4.81974">
        <ele>113.83</ele>
        <time>2021-11-30T11:34:43Z</time>
      </trkpt>
      <trkpt lat="44.34929" lon="4.81968">
        <ele>113.82</ele>
        <time>2021-11-30T11:34:47Z</time>
      </trkpt>
      <trkpt lat="44.34929" lon="4.81946">
        <ele>114.48</ele>
        <time>2021-11-30T11:35:00Z</time>
      </trkpt>
      <trkpt lat="44.34932" lon="4.81923">
        <ele>114.41</ele>
        <time>2021-11-30T11:35:13Z</time>
      </trkpt>
      <trkpt lat="44.3493" lon="4.81893">
        <ele>114.2</ele>
        <time>2021-11-30T11:35:31Z</time>
      </trkpt>
      <trkpt lat="44.34929" lon="4.81889">
        <ele>114.09</ele>
        <time>2021-11-30T11:35:33Z</time>
      </trkpt>
      <trkpt lat="44.34923" lon="4.8188">
        <ele>114.09</ele>
        <time>2021-11-30T11:35:39Z</time>
      </trkpt>
      <trkpt lat="44.34917" lon="4.81873">
        <ele>113.28</ele>
        <time>2021-11-30T11:35:45Z</time>
      </trkpt>
      <trkpt lat="44.34912" lon="4.81869">
        <ele>113.21</ele>
        <time>2021-11-30T11:35:50Z</time>
      </trkpt>
      <trkpt lat="44.3491" lon="4.81866">
        <ele>113.37</ele>
        <time>2021-11-30T11:35:52Z</time>
      </trkpt>
      <trkpt lat="44.34898" lon="4.81851">
        <ele>113.68</ele>
        <time>2021-11-30T11:36:07Z</time>
      </trkpt>
      <trkpt lat="44.34887" lon="4.81842">
        <ele>113.1</ele>
        <time>2021-11-30T11:36:18Z</time>
      </trkpt>
      <trkpt lat="44.34885" lon="4.81841">
        <ele>113.02</ele>
        <time>2021-11-30T11:36:19Z</time>
      </trkpt>
      <trkpt lat="44.34878" lon="4.81836">
        <ele>113.45</ele>
        <time>2021-11-30T11:36:27Z</time>
      </trkpt>
      <trkpt lat="44.3486" lon="4.81823">
        <ele>113.06</ele>
        <time>2021-11-30T11:36:43Z</time>
      </trkpt>
      <trkpt lat="44.34845" lon="4.81811">
        <ele>113.37</ele>
        <time>2021-11-30T11:36:57Z</time>
      </trkpt>
      <trkpt lat="44.34832" lon="4.81801">
        <ele>112.82</ele>
        <time>2021-11-30T11:37:09Z</time>
      </trkpt>
      <trkpt lat="44.34818" lon="4.8179">
        <ele>113.61</ele>
        <time>2021-11-30T11:37:22Z</time>
      </trkpt>
      <trkpt lat="44.34813" lon="4.81788">
        <ele>113.19</ele>
        <time>2021-11-30T11:37:26Z</time>
      </trkpt>
      <trkpt lat="44.34806" lon="4.81783">
        <ele>113.84</ele>
        <time>2021-11-30T11:37:32Z</time>
      </trkpt>
      <trkpt lat="44.34798" lon="4.81775">
        <ele>113.23</ele>
        <time>2021-11-30T11:37:44Z</time>
      </trkpt>
      <trkpt lat="44.3479" lon="4.8177">
        <ele>114.25</ele>
        <time>2021-11-30T11:38:05Z</time>
      </trkpt>
      <trkpt lat="44.34779" lon="4.81762">
        <ele>114.39</ele>
        <time>2021-11-30T11:38:20Z</time>
      </trkpt>
      <trkpt lat="44.34768" lon="4.81758">
        <ele>114.85</ele>
        <time>2021-11-30T11:38:33Z</time>
      </trkpt>
      <trkpt lat="44.34759" lon="4.81759">
        <ele>115.47</ele>
        <time>2021-11-30T11:38:40Z</time>
      </trkpt>
      <trkpt lat="44.34743" lon="4.81758">
        <ele>114.7</ele>
        <time>2021-11-30T11:38:54Z</time>
      </trkpt>
      <trkpt lat="44.34734" lon="4.81746">
        <ele>115.09</ele>
        <time>2021-11-30T11:39:12Z</time>
      </trkpt>
      <trkpt lat="44.3473" lon="4.81742">
        <ele>115.02</ele>
        <time>2021-11-30T11:39:29Z</time>
      </trkpt>
      <trkpt lat="44.34726" lon="4.81739">
        <ele>114.17</ele>
        <time>2021-11-30T11:39:44Z</time>
      </trkpt>
      <trkpt lat="44.34735" lon="4.81738">
        <ele>114.22</ele>
        <time>2021-11-30T11:40:01Z</time>
      </trkpt>
      <trkpt lat="44.34739" lon="4.81731">
        <ele>114.16</ele>
        <time>2021-11-30T11:40:12Z</time>
      </trkpt>
      <trkpt lat="44.34734" lon="4.81709">
        <ele>113.39</ele>
        <time>2021-11-30T11:40:34Z</time>
      </trkpt>
      <trkpt lat="44.34729" lon="4.81689">
        <ele>114.46</ele>
        <time>2021-11-30T11:40:52Z</time>
      </trkpt>
      <trkpt lat="44.34721" lon="4.81676">
        <ele>113.63</ele>
        <time>2021-11-30T11:41:04Z</time>
      </trkpt>
      <trkpt lat="44.3472" lon="4.81664">
        <ele>113.45</ele>
        <time>2021-11-30T11:41:12Z</time>
      </trkpt>
      <trkpt lat="44.34713" lon="4.81647">
        <ele>113.15</ele>
        <time>2021-11-30T11:41:24Z</time>
      </trkpt>
      <trkpt lat="44.34711" lon="4.81641">
        <ele>112.4</ele>
        <time>2021-11-30T11:41:28Z</time>
      </trkpt>
      <trkpt lat="44.34704" lon="4.81618">
        <ele>113.56</ele>
        <time>2021-11-30T11:41:43Z</time>
      </trkpt>
      <trkpt lat="44.347" lon="4.81604">
        <ele>113.67</ele>
        <time>2021-11-30T11:41:51Z</time>
      </trkpt>
      <trkpt lat="44.34695" lon="4.81585">
        <ele>113.31</ele>
        <time>2021-11-30T11:42:06Z</time>
      </trkpt>
      <trkpt lat="44.34685" lon="4.81561">
        <ele>112.99</ele>
        <time>2021-11-30T11:42:26Z</time>
      </trkpt>
      <trkpt lat="44.34672" lon="4.81537">
        <ele>112.95</ele>
        <time>2021-11-30T11:42:44Z</time>
      </trkpt>
      <trkpt lat="44.34671" lon="4.81534">
        <ele>113.12</ele>
        <time>2021-11-30T11:42:46Z</time>
      </trkpt>
      <trkpt lat="44.3467" lon="4.8153">
        <ele>113.19</ele>
        <time>2021-11-30T11:42:48Z</time>
      </trkpt>
      <trkpt lat="44.34666" lon="4.81501">
        <ele>112.79</ele>
        <time>2021-11-30T11:43:07Z</time>
      </trkpt>
      <trkpt lat="44.34659" lon="4.81476">
        <ele>112.87</ele>
        <time>2021-11-30T11:43:26Z</time>
      </trkpt>
      <trkpt lat="44.34647" lon="4.81451">
        <ele>112.94</ele>
        <time>2021-11-30T11:43:46Z</time>
      </trkpt>
      <trkpt lat="44.34632" lon="4.81426">
        <ele>111.92</ele>
        <time>2021-11-30T11:44:08Z</time>
      </trkpt>
      <trkpt lat="44.34629" lon="4.81402">
        <ele>112.08</ele>
        <time>2021-11-30T11:44:23Z</time>
      </trkpt>
      <trkpt lat="44.34622" lon="4.81376">
        <ele>111.62</ele>
        <time>2021-11-30T11:44:41Z</time>
      </trkpt>
      <trkpt lat="44.34615" lon="4.8136">
        <ele>111.36</ele>
        <time>2021-11-30T11:45:00Z</time>
      </trkpt>
      <trkpt lat="44.34613" lon="4.81355">
        <ele>111.77</ele>
        <time>2021-11-30T11:45:27Z</time>
      </trkpt>
      <trkpt lat="44.34613" lon="4.81355">
        <ele>111.73</ele>
        <time>2021-11-30T11:45:38Z</time>
      </trkpt>
      <trkpt lat="44.34528" lon="4.81241">
        <ele>106.8</ele>
        <time>2021-11-30T11:51:52Z</time>
      </trkpt>
      <trkpt lat="44.34524" lon="4.81223">
        <ele>106.83</ele>
        <time>2021-11-30T11:52:07Z</time>
      </trkpt>
      <trkpt lat="44.34523" lon="4.81216">
        <ele>106.94</ele>
        <time>2021-11-30T11:52:12Z</time>
      </trkpt>
      <trkpt lat="44.3452" lon="4.81194">
        <ele>106.56</ele>
        <time>2021-11-30T11:52:28Z</time>
      </trkpt>
      <trkpt lat="44.34514" lon="4.81171">
        <ele>106.64</ele>
        <time>2021-11-30T11:52:44Z</time>
      </trkpt>
      <trkpt lat="44.34509" lon="4.81149">
        <ele>106.22</ele>
        <time>2021-11-30T11:52:59Z</time>
      </trkpt>
      <trkpt lat="44.34503" lon="4.81126">
        <ele>106.47</ele>
        <time>2021-11-30T11:53:17Z</time>
      </trkpt>
      <trkpt lat="44.34498" lon="4.81097">
        <ele>106.09</ele>
        <time>2021-11-30T11:53:38Z</time>
      </trkpt>
      <trkpt lat="44.34491" lon="4.81059">
        <ele>106.2</ele>
        <time>2021-11-30T11:54:00Z</time>
      </trkpt>
      <trkpt lat="44.34485" lon="4.81036">
        <ele>106.02</ele>
        <time>2021-11-30T11:54:17Z</time>
      </trkpt>
      <trkpt lat="44.34481" lon="4.81008">
        <ele>106.55</ele>
        <time>2021-11-30T11:54:31Z</time>
      </trkpt>
      <trkpt lat="44.34478" lon="4.80987">
        <ele>105.58</ele>
        <time>2021-11-30T11:54:45Z</time>
      </trkpt>
      <trkpt lat="44.3447" lon="4.80969">
        <ele>105.88</ele>
        <time>2021-11-30T11:54:58Z</time>
      </trkpt>
      <trkpt lat="44.34457" lon="4.80932">
        <ele>106.22</ele>
        <time>2021-11-30T11:55:25Z</time>
      </trkpt>
      <trkpt lat="44.34447" lon="4.80908">
        <ele>104.87</ele>
        <time>2021-11-30T11:55:47Z</time>
      </trkpt>
      <trkpt lat="44.34439" lon="4.80883">
        <ele>105.33</ele>
        <time>2021-11-30T11:56:05Z</time>
      </trkpt>
      <trkpt lat="44.34431" lon="4.80857">
        <ele>106.77</ele>
        <time>2021-11-30T11:56:24Z</time>
      </trkpt>
      <trkpt lat="44.34423" lon="4.80836">
        <ele>106.4</ele>
        <time>2021-11-30T11:56:42Z</time>
      </trkpt>
      <trkpt lat="44.34417" lon="4.80824">
        <ele>106.27</ele>
        <time>2021-11-30T11:56:51Z</time>
      </trkpt>
      <trkpt lat="44.34412" lon="4.80812">
        <ele>105.73</ele>
        <time>2021-11-30T11:56:59Z</time>
      </trkpt>
      <trkpt lat="44.34408" lon="4.80803">
        <ele>105.6</ele>
        <time>2021-11-30T11:57:05Z</time>
      </trkpt>
      <trkpt lat="44.344" lon="4.80787">
        <ele>105.39</ele>
        <time>2021-11-30T11:57:16Z</time>
      </trkpt>
      <trkpt lat="44.34394" lon="4.8077">
        <ele>105.25</ele>
        <time>2021-11-30T11:57:28Z</time>
      </trkpt>
      <trkpt lat="44.3439" lon="4.8076">
        <ele>105.29</ele>
        <time>2021-11-30T11:57:34Z</time>
      </trkpt>
      <trkpt lat="44.34382" lon="4.80736">
        <ele>105.68</ele>
        <time>2021-11-30T11:57:48Z</time>
      </trkpt>
      <trkpt lat="44.34378" lon="4.80724">
        <ele>106</ele>
        <time>2021-11-30T11:57:56Z</time>
      </trkpt>
      <trkpt lat="44.34372" lon="4.80703">
        <ele>105.65</ele>
        <time>2021-11-30T11:58:10Z</time>
      </trkpt>
      <trkpt lat="44.34368" lon="4.80684">
        <ele>104.86</ele>
        <time>2021-11-30T11:58:24Z</time>
      </trkpt>
      <trkpt lat="44.3436" lon="4.80641">
        <ele>104.52</ele>
        <time>2021-11-30T11:58:49Z</time>
      </trkpt>
      <trkpt lat="44.34359" lon="4.80637">
        <ele>104.28</ele>
        <time>2021-11-30T11:58:52Z</time>
      </trkpt>
      <trkpt lat="44.34358" lon="4.80624">
        <ele>105.01</ele>
        <time>2021-11-30T11:58:59Z</time>
      </trkpt>
      <trkpt lat="44.34358" lon="4.80591">
        <ele>104.26</ele>
        <time>2021-11-30T11:59:18Z</time>
      </trkpt>
      <trkpt lat="44.34356" lon="4.80562">
        <ele>104.07</ele>
        <time>2021-11-30T11:59:35Z</time>
      </trkpt>
      <trkpt lat="44.34355" lon="4.80557">
        <ele>103.72</ele>
        <time>2021-11-30T11:59:39Z</time>
      </trkpt>
      <trkpt lat="44.3435" lon="4.80521">
        <ele>103.24</ele>
        <time>2021-11-30T12:00:02Z</time>
      </trkpt>
      <trkpt lat="44.34349" lon="4.80476">
        <ele>103.21</ele>
        <time>2021-11-30T12:00:28Z</time>
      </trkpt>
      <trkpt lat="44.34345" lon="4.80455">
        <ele>102.79</ele>
        <time>2021-11-30T12:00:41Z</time>
      </trkpt>
      <trkpt lat="44.34342" lon="4.80419">
        <ele>103.66</ele>
        <time>2021-11-30T12:00:59Z</time>
      </trkpt>
      <trkpt lat="44.34341" lon="4.80395">
        <ele>102.46</ele>
        <time>2021-11-30T12:01:13Z</time>
      </trkpt>
      <trkpt lat="44.34338" lon="4.80393">
        <ele>103.31</ele>
        <time>2021-11-30T12:01:34Z</time>
      </trkpt>
      <trkpt lat="44.34335" lon="4.80379">
        <ele>102.73</ele>
        <time>2021-11-30T12:01:56Z</time>
      </trkpt>
      <trkpt lat="44.34331" lon="4.80349">
        <ele>102.03</ele>
        <time>2021-11-30T12:02:17Z</time>
      </trkpt>
      <trkpt lat="44.34328" lon="4.80315">
        <ele>102.07</ele>
        <time>2021-11-30T12:02:39Z</time>
      </trkpt>
      <trkpt lat="44.34325" lon="4.80281">
        <ele>101.39</ele>
        <time>2021-11-30T12:03:00Z</time>
      </trkpt>
      <trkpt lat="44.34322" lon="4.80252">
        <ele>101.03</ele>
        <time>2021-11-30T12:03:17Z</time>
      </trkpt>
      <trkpt lat="44.34322" lon="4.8025">
        <ele>101.03</ele>
        <time>2021-11-30T12:03:18Z</time>
      </trkpt>
      <trkpt lat="44.34321" lon="4.80247">
        <ele>101.31</ele>
        <time>2021-11-30T12:03:20Z</time>
      </trkpt>
      <trkpt lat="44.34321" lon="4.80238">
        <ele>101.81</ele>
        <time>2021-11-30T12:03:25Z</time>
      </trkpt>
      <trkpt lat="44.34318" lon="4.80223">
        <ele>101.58</ele>
        <time>2021-11-30T12:03:33Z</time>
      </trkpt>
      <trkpt lat="44.34317" lon="4.80219">
        <ele>101.34</ele>
        <time>2021-11-30T12:03:36Z</time>
      </trkpt>
      <trkpt lat="44.34312" lon="4.80189">
        <ele>100.78</ele>
        <time>2021-11-30T12:03:52Z</time>
      </trkpt>
      <trkpt lat="44.34308" lon="4.80161">
        <ele>100.77</ele>
        <time>2021-11-30T12:04:08Z</time>
      </trkpt>
      <trkpt lat="44.34307" lon="4.80148">
        <ele>100.68</ele>
        <time>2021-11-30T12:04:15Z</time>
      </trkpt>
      <trkpt lat="44.34307" lon="4.80143">
        <ele>100.87</ele>
        <time>2021-11-30T12:04:18Z</time>
      </trkpt>
      <trkpt lat="44.34307" lon="4.8012">
        <ele>101.51</ele>
        <time>2021-11-30T12:04:31Z</time>
      </trkpt>
      <trkpt lat="44.34302" lon="4.80101">
        <ele>101.17</ele>
        <time>2021-11-30T12:04:44Z</time>
      </trkpt>
      <trkpt lat="44.34299" lon="4.80071">
        <ele>101.18</ele>
        <time>2021-11-30T12:05:01Z</time>
      </trkpt>
      <trkpt lat="44.34296" lon="4.80049">
        <ele>101.4</ele>
        <time>2021-11-30T12:05:14Z</time>
      </trkpt>
      <trkpt lat="44.34292" lon="4.80026">
        <ele>102.11</ele>
        <time>2021-11-30T12:05:28Z</time>
      </trkpt>
      <trkpt lat="44.3429" lon="4.80015">
        <ele>101.39</ele>
        <time>2021-11-30T12:05:35Z</time>
      </trkpt>
      <trkpt lat="44.34288" lon="4.80004">
        <ele>101.27</ele>
        <time>2021-11-30T12:05:42Z</time>
      </trkpt>
      <trkpt lat="44.34289" lon="4.79991">
        <ele>101.51</ele>
        <time>2021-11-30T12:05:49Z</time>
      </trkpt>
      <trkpt lat="44.34286" lon="4.79968">
        <ele>101.78</ele>
        <time>2021-11-30T12:06:03Z</time>
      </trkpt>
      <trkpt lat="44.34285" lon="4.79955">
        <ele>101.68</ele>
        <time>2021-11-30T12:06:10Z</time>
      </trkpt>
      <trkpt lat="44.34286" lon="4.7994">
        <ele>101.7</ele>
        <time>2021-11-30T12:06:23Z</time>
      </trkpt>
      <trkpt lat="44.34292" lon="4.79938">
        <ele>102.81</ele>
        <time>2021-11-30T12:06:40Z</time>
      </trkpt>
      <trkpt lat="44.34291" lon="4.79936">
        <ele>102.05</ele>
        <time>2021-11-30T12:07:01Z</time>
      </trkpt>
      <trkpt lat="44.34291" lon="4.79936">
        <ele>101.98</ele>
        <time>2021-11-30T12:07:05Z</time>
      </trkpt>
      <trkpt lat="44.34295" lon="4.79912">
        <ele>101.3</ele>
        <time>2021-11-30T12:09:32Z</time>
      </trkpt>
      <trkpt lat="44.34312" lon="4.79924">
        <ele>102.57</ele>
        <time>2021-11-30T12:09:48Z</time>
      </trkpt>
      <trkpt lat="44.34313" lon="4.79925">
        <ele>102.49</ele>
        <time>2021-11-30T12:09:49Z</time>
      </trkpt>
      <trkpt lat="44.34322" lon="4.79933">
        <ele>102.48</ele>
        <time>2021-11-30T12:10:01Z</time>
      </trkpt>
      <trkpt lat="44.34338" lon="4.79942">
        <ele>102.14</ele>
        <time>2021-11-30T12:10:19Z</time>
      </trkpt>
      <trkpt lat="44.34363" lon="4.7995">
        <ele>103.04</ele>
        <time>2021-11-30T12:10:42Z</time>
      </trkpt>
      <trkpt lat="44.3438" lon="4.79954">
        <ele>103.78</ele>
        <time>2021-11-30T12:10:56Z</time>
      </trkpt>
      <trkpt lat="44.34397" lon="4.7996">
        <ele>103.82</ele>
        <time>2021-11-30T12:11:10Z</time>
      </trkpt>
      <trkpt lat="44.34412" lon="4.79969">
        <ele>103.71</ele>
        <time>2021-11-30T12:11:23Z</time>
      </trkpt>
      <trkpt lat="44.34436" lon="4.79981">
        <ele>103.85</ele>
        <time>2021-11-30T12:11:46Z</time>
      </trkpt>
      <trkpt lat="44.34443" lon="4.79986">
        <ele>103.93</ele>
        <time>2021-11-30T12:11:53Z</time>
      </trkpt>
      <trkpt lat="44.34446" lon="4.79986">
        <ele>104.05</ele>
        <time>2021-11-30T12:11:56Z</time>
      </trkpt>
      <trkpt lat="44.34475" lon="4.79991">
        <ele>104.2</ele>
        <time>2021-11-30T12:12:18Z</time>
      </trkpt>
      <trkpt lat="44.34484" lon="4.79997">
        <ele>104.72</ele>
        <time>2021-11-30T12:12:29Z</time>
      </trkpt>
      <trkpt lat="44.34499" lon="4.80003">
        <ele>104.55</ele>
        <time>2021-11-30T12:12:44Z</time>
      </trkpt>
      <trkpt lat="44.34511" lon="4.79999">
        <ele>106.25</ele>
        <time>2021-11-30T12:13:02Z</time>
      </trkpt>
      <trkpt lat="44.34516" lon="4.79988">
        <ele>106.77</ele>
        <time>2021-11-30T12:13:16Z</time>
      </trkpt>
      <trkpt lat="44.34517" lon="4.79983">
        <ele>107.73</ele>
        <time>2021-11-30T12:13:21Z</time>
      </trkpt>
      <trkpt lat="44.3452" lon="4.7997">
        <ele>106.89</ele>
        <time>2021-11-30T12:13:31Z</time>
      </trkpt>
      <trkpt lat="44.34523" lon="4.79952">
        <ele>108.13</ele>
        <time>2021-11-30T12:13:44Z</time>
      </trkpt>
      <trkpt lat="44.34529" lon="4.79939">
        <ele>110</ele>
        <time>2021-11-30T12:13:53Z</time>
      </trkpt>
      <trkpt lat="44.34534" lon="4.79912">
        <ele>109.57</ele>
        <time>2021-11-30T12:14:12Z</time>
      </trkpt>
      <trkpt lat="44.34539" lon="4.79895">
        <ele>112.6</ele>
        <time>2021-11-30T12:14:25Z</time>
      </trkpt>
      <trkpt lat="44.34545" lon="4.79871">
        <ele>113.51</ele>
        <time>2021-11-30T12:14:42Z</time>
      </trkpt>
      <trkpt lat="44.34553" lon="4.79847">
        <ele>116.26</ele>
        <time>2021-11-30T12:15:05Z</time>
      </trkpt>
      <trkpt lat="44.34556" lon="4.79833">
        <ele>117.94</ele>
        <time>2021-11-30T12:15:18Z</time>
      </trkpt>
      <trkpt lat="44.34561" lon="4.79816">
        <ele>119.21</ele>
        <time>2021-11-30T12:15:34Z</time>
      </trkpt>
      <trkpt lat="44.34565" lon="4.79807">
        <ele>120.68</ele>
        <time>2021-11-30T12:15:52Z</time>
      </trkpt>
      <trkpt lat="44.34565" lon="4.79792">
        <ele>123.31</ele>
        <time>2021-11-30T12:16:10Z</time>
      </trkpt>
      <trkpt lat="44.34558" lon="4.7978">
        <ele>125.63</ele>
        <time>2021-11-30T12:16:29Z</time>
      </trkpt>
      <trkpt lat="44.34551" lon="4.79769">
        <ele>127.97</ele>
        <time>2021-11-30T12:16:46Z</time>
      </trkpt>
      <trkpt lat="44.34535" lon="4.79758">
        <ele>128.59</ele>
        <time>2021-11-30T12:17:03Z</time>
      </trkpt>
      <trkpt lat="44.34529" lon="4.79749">
        <ele>130.61</ele>
        <time>2021-11-30T12:17:14Z</time>
      </trkpt>
      <trkpt lat="44.34515" lon="4.79735">
        <ele>130.62</ele>
        <time>2021-11-30T12:17:33Z</time>
      </trkpt>
      <trkpt lat="44.34511" lon="4.79714">
        <ele>133.98</ele>
        <time>2021-11-30T12:17:51Z</time>
      </trkpt>
      <trkpt lat="44.34502" lon="4.79698">
        <ele>137.03</ele>
        <time>2021-11-30T12:18:09Z</time>
      </trkpt>
      <trkpt lat="44.34492" lon="4.79682">
        <ele>139.01</ele>
        <time>2021-11-30T12:18:29Z</time>
      </trkpt>
      <trkpt lat="44.34486" lon="4.79665">
        <ele>139.07</ele>
        <time>2021-11-30T12:18:45Z</time>
      </trkpt>
      <trkpt lat="44.34482" lon="4.79656">
        <ele>139.28</ele>
        <time>2021-11-30T12:19:04Z</time>
      </trkpt>
      <trkpt lat="44.3448" lon="4.79653">
        <ele>138.49</ele>
        <time>2021-11-30T12:19:08Z</time>
      </trkpt>
      <trkpt lat="44.34478" lon="4.79641">
        <ele>139.46</ele>
        <time>2021-11-30T12:19:18Z</time>
      </trkpt>
      <trkpt lat="44.3448" lon="4.79626">
        <ele>141.09</ele>
        <time>2021-11-30T12:19:32Z</time>
      </trkpt>
      <trkpt lat="44.34491" lon="4.79629">
        <ele>142.65</ele>
        <time>2021-11-30T12:19:49Z</time>
      </trkpt>
      <trkpt lat="44.34495" lon="4.79634">
        <ele>142.81</ele>
        <time>2021-11-30T12:19:54Z</time>
      </trkpt>
      <trkpt lat="44.3451" lon="4.79649">
        <ele>145.4</ele>
        <time>2021-11-30T12:20:15Z</time>
      </trkpt>
      <trkpt lat="44.34522" lon="4.79662">
        <ele>148.43</ele>
        <time>2021-11-30T12:20:35Z</time>
      </trkpt>
      <trkpt lat="44.34526" lon="4.7966">
        <ele>148.87</ele>
        <time>2021-11-30T12:21:01Z</time>
      </trkpt>
      <trkpt lat="44.34548" lon="4.79476">
        <ele>168.79</ele>
        <time>2021-11-30T12:28:54Z</time>
      </trkpt>
      <trkpt lat="44.34549" lon="4.79473">
        <ele>169.21</ele>
        <time>2021-11-30T12:28:56Z</time>
      </trkpt>
      <trkpt lat="44.34558" lon="4.79465">
        <ele>170.73</ele>
        <time>2021-11-30T12:29:05Z</time>
      </trkpt>
      <trkpt lat="44.34567" lon="4.79467">
        <ele>173.48</ele>
        <time>2021-11-30T12:29:12Z</time>
      </trkpt>
      <trkpt lat="44.34575" lon="4.79472">
        <ele>176.61</ele>
        <time>2021-11-30T12:29:19Z</time>
      </trkpt>
      <trkpt lat="44.3458" lon="4.79474">
        <ele>176.49</ele>
        <time>2021-11-30T12:29:35Z</time>
      </trkpt>
      <trkpt lat="44.34577" lon="4.79469">
        <ele>175.32</ele>
        <time>2021-11-30T12:30:12Z</time>
      </trkpt>
      <trkpt lat="44.34578" lon="4.7947">
        <ele>176.19</ele>
        <time>2021-11-30T12:30:30Z</time>
      </trkpt>
      <trkpt lat="44.34613" lon="4.79592">
        <ele>190.05</ele>
        <time>2021-11-30T12:35:28Z</time>
      </trkpt>
      <trkpt lat="44.34622" lon="4.79608">
        <ele>190.22</ele>
        <time>2021-11-30T12:35:48Z</time>
      </trkpt>
      <trkpt lat="44.34631" lon="4.79613">
        <ele>189.98</ele>
        <time>2021-11-30T12:35:57Z</time>
      </trkpt>
      <trkpt lat="44.34644" lon="4.79621">
        <ele>189.41</ele>
        <time>2021-11-30T12:36:08Z</time>
      </trkpt>
      <trkpt lat="44.34646" lon="4.79623">
        <ele>189.18</ele>
        <time>2021-11-30T12:36:10Z</time>
      </trkpt>
      <trkpt lat="44.34652" lon="4.79631">
        <ele>188.83</ele>
        <time>2021-11-30T12:36:19Z</time>
      </trkpt>
      <trkpt lat="44.34656" lon="4.79637">
        <ele>188.75</ele>
        <time>2021-11-30T12:36:24Z</time>
      </trkpt>
      <trkpt lat="44.34661" lon="4.79644">
        <ele>188.99</ele>
        <time>2021-11-30T12:36:30Z</time>
      </trkpt>
      <trkpt lat="44.34667" lon="4.79654">
        <ele>189.41</ele>
        <time>2021-11-30T12:36:38Z</time>
      </trkpt>
      <trkpt lat="44.34676" lon="4.79671">
        <ele>188.76</ele>
        <time>2021-11-30T12:36:50Z</time>
      </trkpt>
      <trkpt lat="44.34688" lon="4.7968">
        <ele>188.28</ele>
        <time>2021-11-30T12:37:03Z</time>
      </trkpt>
      <trkpt lat="44.34699" lon="4.79691">
        <ele>188.27</ele>
        <time>2021-11-30T12:37:14Z</time>
      </trkpt>
      <trkpt lat="44.34712" lon="4.79701">
        <ele>187.93</ele>
        <time>2021-11-30T12:37:26Z</time>
      </trkpt>
      <trkpt lat="44.34717" lon="4.79705">
        <ele>189.03</ele>
        <time>2021-11-30T12:37:32Z</time>
      </trkpt>
      <trkpt lat="44.34721" lon="4.79711">
        <ele>188.95</ele>
        <time>2021-11-30T12:37:37Z</time>
      </trkpt>
      <trkpt lat="44.34731" lon="4.79723">
        <ele>188.91</ele>
        <time>2021-11-30T12:37:48Z</time>
      </trkpt>
      <trkpt lat="44.34745" lon="4.7974">
        <ele>188.32</ele>
        <time>2021-11-30T12:38:04Z</time>
      </trkpt>
      <trkpt lat="44.34755" lon="4.79749">
        <ele>188.62</ele>
        <time>2021-11-30T12:38:15Z</time>
      </trkpt>
      <trkpt lat="44.34772" lon="4.79742">
        <ele>188.94</ele>
        <time>2021-11-30T12:38:31Z</time>
      </trkpt>
      <trkpt lat="44.34785" lon="4.79742">
        <ele>187.69</ele>
        <time>2021-11-30T12:38:46Z</time>
      </trkpt>
      <trkpt lat="44.34796" lon="4.79743">
        <ele>184.57</ele>
        <time>2021-11-30T12:38:58Z</time>
      </trkpt>
      <trkpt lat="44.34806" lon="4.79749">
        <ele>181.48</ele>
        <time>2021-11-30T12:39:10Z</time>
      </trkpt>
      <trkpt lat="44.34817" lon="4.79748">
        <ele>178.29</ele>
        <time>2021-11-30T12:39:24Z</time>
      </trkpt>
      <trkpt lat="44.34829" lon="4.79762">
        <ele>175.15</ele>
        <time>2021-11-30T12:39:43Z</time>
      </trkpt>
      <trkpt lat="44.34837" lon="4.79779">
        <ele>172.04</ele>
        <time>2021-11-30T12:40:01Z</time>
      </trkpt>
      <trkpt lat="44.34837" lon="4.79785">
        <ele>171.46</ele>
        <time>2021-11-30T12:40:06Z</time>
      </trkpt>
      <trkpt lat="44.34836" lon="4.79807">
        <ele>169.56</ele>
        <time>2021-11-30T12:40:26Z</time>
      </trkpt>
      <trkpt lat="44.34836" lon="4.79811">
        <ele>169.27</ele>
        <time>2021-11-30T12:40:29Z</time>
      </trkpt>
      <trkpt lat="44.34838" lon="4.79815">
        <ele>169.04</ele>
        <time>2021-11-30T12:40:32Z</time>
      </trkpt>
      <trkpt lat="44.34856" lon="4.79829">
        <ele>167.82</ele>
        <time>2021-11-30T12:40:54Z</time>
      </trkpt>
      <trkpt lat="44.3486" lon="4.79828">
        <ele>167.6</ele>
        <time>2021-11-30T12:40:58Z</time>
      </trkpt>
      <trkpt lat="44.34877" lon="4.79823">
        <ele>167.02</ele>
        <time>2021-11-30T12:41:16Z</time>
      </trkpt>
      <trkpt lat="44.34892" lon="4.79827">
        <ele>166.69</ele>
        <time>2021-11-30T12:41:31Z</time>
      </trkpt>
      <trkpt lat="44.34899" lon="4.79833">
        <ele>166.64</ele>
        <time>2021-11-30T12:41:45Z</time>
      </trkpt>
      <trkpt lat="44.34913" lon="4.79842">
        <ele>165</ele>
        <time>2021-11-30T12:42:04Z</time>
      </trkpt>
      <trkpt lat="44.34928" lon="4.79848">
        <ele>163.55</ele>
        <time>2021-11-30T12:42:20Z</time>
      </trkpt>
      <trkpt lat="44.34946" lon="4.79849">
        <ele>163.8</ele>
        <time>2021-11-30T12:42:37Z</time>
      </trkpt>
      <trkpt lat="44.34965" lon="4.79859">
        <ele>163.95</ele>
        <time>2021-11-30T12:42:54Z</time>
      </trkpt>
      <trkpt lat="44.34976" lon="4.79869">
        <ele>164.08</ele>
        <time>2021-11-30T12:43:07Z</time>
      </trkpt>
      <trkpt lat="44.34998" lon="4.79873">
        <ele>165.4</ele>
        <time>2021-11-30T12:43:32Z</time>
      </trkpt>
      <trkpt lat="44.35023" lon="4.79881">
        <ele>166.23</ele>
        <time>2021-11-30T12:43:56Z</time>
      </trkpt>
      <trkpt lat="44.35036" lon="4.79886">
        <ele>166.27</ele>
        <time>2021-11-30T12:44:08Z</time>
      </trkpt>
      <trkpt lat="44.35055" lon="4.79895">
        <ele>165.51</ele>
        <time>2021-11-30T12:44:29Z</time>
      </trkpt>
      <trkpt lat="44.35072" lon="4.79904">
        <ele>167.79</ele>
        <time>2021-11-30T12:44:46Z</time>
      </trkpt>
      <trkpt lat="44.35088" lon="4.7991">
        <ele>167.66</ele>
        <time>2021-11-30T12:45:03Z</time>
      </trkpt>
      <trkpt lat="44.35105" lon="4.79918">
        <ele>167.58</ele>
        <time>2021-11-30T12:45:24Z</time>
      </trkpt>
      <trkpt lat="44.35124" lon="4.79928">
        <ele>167.24</ele>
        <time>2021-11-30T12:45:43Z</time>
      </trkpt>
      <trkpt lat="44.35141" lon="4.7994">
        <ele>167.67</ele>
        <time>2021-11-30T12:46:03Z</time>
      </trkpt>
      <trkpt lat="44.35156" lon="4.79946">
        <ele>167.42</ele>
        <time>2021-11-30T12:46:20Z</time>
      </trkpt>
      <trkpt lat="44.3517" lon="4.79943">
        <ele>168.47</ele>
        <time>2021-11-30T12:46:40Z</time>
      </trkpt>
      <trkpt lat="44.35174" lon="4.79943">
        <ele>167.4</ele>
        <time>2021-11-30T12:47:01Z</time>
      </trkpt>
      <trkpt lat="44.35184" lon="4.79945">
        <ele>167.56</ele>
        <time>2021-11-30T12:47:18Z</time>
      </trkpt>
      <trkpt lat="44.35183" lon="4.79938">
        <ele>167.46</ele>
        <time>2021-11-30T12:47:39Z</time>
      </trkpt>
      <trkpt lat="44.35183" lon="4.79939">
        <ele>167.12</ele>
        <time>2021-11-30T12:48:03Z</time>
      </trkpt>
      <trkpt lat="44.35239" lon="4.79947">
        <ele>167.71</ele>
        <time>2021-11-30T12:51:25Z</time>
      </trkpt>
      <trkpt lat="44.35242" lon="4.79944">
        <ele>168.01</ele>
        <time>2021-11-30T12:51:28Z</time>
      </trkpt>
      <trkpt lat="44.35251" lon="4.79936">
        <ele>168.54</ele>
        <time>2021-11-30T12:51:41Z</time>
      </trkpt>
      <trkpt lat="44.35258" lon="4.79924">
        <ele>168.41</ele>
        <time>2021-11-30T12:51:53Z</time>
      </trkpt>
      <trkpt lat="44.35264" lon="4.79915">
        <ele>168.36</ele>
        <time>2021-11-30T12:52:03Z</time>
      </trkpt>
      <trkpt lat="44.35267" lon="4.79914">
        <ele>168.54</ele>
        <time>2021-11-30T12:52:05Z</time>
      </trkpt>
      <trkpt lat="44.35275" lon="4.79917">
        <ele>168.54</ele>
        <time>2021-11-30T12:52:12Z</time>
      </trkpt>
      <trkpt lat="44.3529" lon="4.79912">
        <ele>169.79</ele>
        <time>2021-11-30T12:52:30Z</time>
      </trkpt>
      <trkpt lat="44.35298" lon="4.79917">
        <ele>170.28</ele>
        <time>2021-11-30T12:52:38Z</time>
      </trkpt>
      <trkpt lat="44.35313" lon="4.79921">
        <ele>171.52</ele>
        <time>2021-11-30T12:52:55Z</time>
      </trkpt>
      <trkpt lat="44.35329" lon="4.7992">
        <ele>172.95</ele>
        <time>2021-11-30T12:53:10Z</time>
      </trkpt>
      <trkpt lat="44.35334" lon="4.79924">
        <ele>174.73</ele>
        <time>2021-11-30T12:53:19Z</time>
      </trkpt>
      <trkpt lat="44.35342" lon="4.79949">
        <ele>174.06</ele>
        <time>2021-11-30T12:53:40Z</time>
      </trkpt>
      <trkpt lat="44.35346" lon="4.79961">
        <ele>174.12</ele>
        <time>2021-11-30T12:53:48Z</time>
      </trkpt>
      <trkpt lat="44.35345" lon="4.79964">
        <ele>173.93</ele>
        <time>2021-11-30T12:53:50Z</time>
      </trkpt>
      <trkpt lat="44.35348" lon="4.79977">
        <ele>173.93</ele>
        <time>2021-11-30T12:53:58Z</time>
      </trkpt>
      <trkpt lat="44.35357" lon="4.79995">
        <ele>173.71</ele>
        <time>2021-11-30T12:54:13Z</time>
      </trkpt>
      <trkpt lat="44.35367" lon="4.8001">
        <ele>173.19</ele>
        <time>2021-11-30T12:54:27Z</time>
      </trkpt>
      <trkpt lat="44.35379" lon="4.80033">
        <ele>173.5</ele>
        <time>2021-11-30T12:54:46Z</time>
      </trkpt>
      <trkpt lat="44.35387" lon="4.80045">
        <ele>173.57</ele>
        <time>2021-11-30T12:54:57Z</time>
      </trkpt>
      <trkpt lat="44.35401" lon="4.80066">
        <ele>172.69</ele>
        <time>2021-11-30T12:55:15Z</time>
      </trkpt>
      <trkpt lat="44.35402" lon="4.80069">
        <ele>172.59</ele>
        <time>2021-11-30T12:55:17Z</time>
      </trkpt>
      <trkpt lat="44.35407" lon="4.80082">
        <ele>172.29</ele>
        <time>2021-11-30T12:55:27Z</time>
      </trkpt>
      <trkpt lat="44.35409" lon="4.80085">
        <ele>172.06</ele>
        <time>2021-11-30T12:55:30Z</time>
      </trkpt>
      <trkpt lat="44.3541" lon="4.80095">
        <ele>171.61</ele>
        <time>2021-11-30T12:55:35Z</time>
      </trkpt>
      <trkpt lat="44.35412" lon="4.80098">
        <ele>171.47</ele>
        <time>2021-11-30T12:55:38Z</time>
      </trkpt>
      <trkpt lat="44.35412" lon="4.80101">
        <ele>171.57</ele>
        <time>2021-11-30T12:55:40Z</time>
      </trkpt>
      <trkpt lat="44.35416" lon="4.80119">
        <ele>172.7</ele>
        <time>2021-11-30T12:55:54Z</time>
      </trkpt>
      <trkpt lat="44.35424" lon="4.8014">
        <ele>173.6</ele>
        <time>2021-11-30T12:56:12Z</time>
      </trkpt>
      <trkpt lat="44.35435" lon="4.80158">
        <ele>175.37</ele>
        <time>2021-11-30T12:56:33Z</time>
      </trkpt>
      <trkpt lat="44.35446" lon="4.80174">
        <ele>174.27</ele>
        <time>2021-11-30T12:56:52Z</time>
      </trkpt>
      <trkpt lat="44.35456" lon="4.80191">
        <ele>174.55</ele>
        <time>2021-11-30T12:57:10Z</time>
      </trkpt>
      <trkpt lat="44.3547" lon="4.80204">
        <ele>175.76</ele>
        <time>2021-11-30T12:57:26Z</time>
      </trkpt>
      <trkpt lat="44.3548" lon="4.80225">
        <ele>176.72</ele>
        <time>2021-11-30T12:57:49Z</time>
      </trkpt>
      <trkpt lat="44.3549" lon="4.80243">
        <ele>175.68</ele>
        <time>2021-11-30T12:58:07Z</time>
      </trkpt>
      <trkpt lat="44.35506" lon="4.8026">
        <ele>176.4</ele>
        <time>2021-11-30T12:58:27Z</time>
      </trkpt>
      <trkpt lat="44.35518" lon="4.80282">
        <ele>175.75</ele>
        <time>2021-11-30T12:58:45Z</time>
      </trkpt>
      <trkpt lat="44.35528" lon="4.80298">
        <ele>175.73</ele>
        <time>2021-11-30T12:58:59Z</time>
      </trkpt>
      <trkpt lat="44.35536" lon="4.8032">
        <ele>175.73</ele>
        <time>2021-11-30T12:59:14Z</time>
      </trkpt>
      <trkpt lat="44.35536" lon="4.80324">
        <ele>176.26</ele>
        <time>2021-11-30T12:59:17Z</time>
      </trkpt>
      <trkpt lat="44.35536" lon="4.80339">
        <ele>176.61</ele>
        <time>2021-11-30T12:59:28Z</time>
      </trkpt>
      <trkpt lat="44.35543" lon="4.80356">
        <ele>176.63</ele>
        <time>2021-11-30T12:59:40Z</time>
      </trkpt>
      <trkpt lat="44.35546" lon="4.8037">
        <ele>176.16</ele>
        <time>2021-11-30T12:59:51Z</time>
      </trkpt>
      <trkpt lat="44.35557" lon="4.8039">
        <ele>176.5</ele>
        <time>2021-11-30T13:00:09Z</time>
      </trkpt>
      <trkpt lat="44.35565" lon="4.80407">
        <ele>177.81</ele>
        <time>2021-11-30T13:00:25Z</time>
      </trkpt>
      <trkpt lat="44.3557" lon="4.80416">
        <ele>177.91</ele>
        <time>2021-11-30T13:00:34Z</time>
      </trkpt>
      <trkpt lat="44.35571" lon="4.80419">
        <ele>178.02</ele>
        <time>2021-11-30T13:00:36Z</time>
      </trkpt>
      <trkpt lat="44.35578" lon="4.80436">
        <ele>179.02</ele>
        <time>2021-11-30T13:00:50Z</time>
      </trkpt>
      <trkpt lat="44.35581" lon="4.80441">
        <ele>179.22</ele>
        <time>2021-11-30T13:00:54Z</time>
      </trkpt>
      <trkpt lat="44.35585" lon="4.80451">
        <ele>179.47</ele>
        <time>2021-11-30T13:01:02Z</time>
      </trkpt>
      <trkpt lat="44.35593" lon="4.80463">
        <ele>180.53</ele>
        <time>2021-11-30T13:01:13Z</time>
      </trkpt>
      <trkpt lat="44.35601" lon="4.80477">
        <ele>180.16</ele>
        <time>2021-11-30T13:01:27Z</time>
      </trkpt>
      <trkpt lat="44.35616" lon="4.80501">
        <ele>182.32</ele>
        <time>2021-11-30T13:01:50Z</time>
      </trkpt>
      <trkpt lat="44.35617" lon="4.80519">
        <ele>182.04</ele>
        <time>2021-11-30T13:02:05Z</time>
      </trkpt>
      <trkpt lat="44.35618" lon="4.80546">
        <ele>184.33</ele>
        <time>2021-11-30T13:02:27Z</time>
      </trkpt>
      <trkpt lat="44.35626" lon="4.80565">
        <ele>185.86</ele>
        <time>2021-11-30T13:02:42Z</time>
      </trkpt>
      <trkpt lat="44.35632" lon="4.80582">
        <ele>186.1</ele>
        <time>2021-11-30T13:02:56Z</time>
      </trkpt>
      <trkpt lat="44.35637" lon="4.80602">
        <ele>187.49</ele>
        <time>2021-11-30T13:03:12Z</time>
      </trkpt>
      <trkpt lat="44.35647" lon="4.80622">
        <ele>189.51</ele>
        <time>2021-11-30T13:03:32Z</time>
      </trkpt>
      <trkpt lat="44.35654" lon="4.80631">
        <ele>190.04</ele>
        <time>2021-11-30T13:03:51Z</time>
      </trkpt>
      <trkpt lat="44.35656" lon="4.80631">
        <ele>190.71</ele>
        <time>2021-11-30T13:04:12Z</time>
      </trkpt>
      <trkpt lat="44.3566" lon="4.8066">
        <ele>190.88</ele>
        <time>2021-11-30T13:08:29Z</time>
      </trkpt>
      <trkpt lat="44.35662" lon="4.80681">
        <ele>192.84</ele>
        <time>2021-11-30T13:08:43Z</time>
      </trkpt>
      <trkpt lat="44.35663" lon="4.80685">
        <ele>193.52</ele>
        <time>2021-11-30T13:08:46Z</time>
      </trkpt>
      <trkpt lat="44.35665" lon="4.80694">
        <ele>196</ele>
        <time>2021-11-30T13:08:53Z</time>
      </trkpt>
      <trkpt lat="44.35667" lon="4.80702">
        <ele>196.55</ele>
        <time>2021-11-30T13:08:58Z</time>
      </trkpt>
      <trkpt lat="44.35676" lon="4.80718">
        <ele>198.38</ele>
        <time>2021-11-30T13:09:13Z</time>
      </trkpt>
      <trkpt lat="44.35685" lon="4.80728">
        <ele>199.9</ele>
        <time>2021-11-30T13:09:24Z</time>
      </trkpt>
      <trkpt lat="44.35706" lon="4.80741">
        <ele>199.94</ele>
        <time>2021-11-30T13:09:45Z</time>
      </trkpt>
      <trkpt lat="44.35721" lon="4.80749">
        <ele>202.6</ele>
        <time>2021-11-30T13:10:02Z</time>
      </trkpt>
      <trkpt lat="44.3573" lon="4.80755">
        <ele>204.45</ele>
        <time>2021-11-30T13:10:12Z</time>
      </trkpt>
      <trkpt lat="44.35742" lon="4.80761">
        <ele>206.59</ele>
        <time>2021-11-30T13:10:27Z</time>
      </trkpt>
      <trkpt lat="44.35758" lon="4.80767">
        <ele>209.69</ele>
        <time>2021-11-30T13:10:46Z</time>
      </trkpt>
      <trkpt lat="44.35775" lon="4.80779">
        <ele>212.76</ele>
        <time>2021-11-30T13:11:04Z</time>
      </trkpt>
      <trkpt lat="44.35786" lon="4.80795">
        <ele>213.1</ele>
        <time>2021-11-30T13:11:21Z</time>
      </trkpt>
      <trkpt lat="44.35793" lon="4.80808">
        <ele>214.79</ele>
        <time>2021-11-30T13:11:35Z</time>
      </trkpt>
      <trkpt lat="44.35801" lon="4.80829">
        <ele>216.35</ele>
        <time>2021-11-30T13:11:53Z</time>
      </trkpt>
      <trkpt lat="44.3581" lon="4.80851">
        <ele>218.75</ele>
        <time>2021-11-30T13:12:12Z</time>
      </trkpt>
      <trkpt lat="44.35817" lon="4.80873">
        <ele>221.11</ele>
        <time>2021-11-30T13:12:31Z</time>
      </trkpt>
      <trkpt lat="44.35827" lon="4.80896">
        <ele>223.22</ele>
        <time>2021-11-30T13:12:52Z</time>
      </trkpt>
      <trkpt lat="44.35835" lon="4.8091">
        <ele>224.1</ele>
        <time>2021-11-30T13:13:06Z</time>
      </trkpt>
      <trkpt lat="44.35848" lon="4.8093">
        <ele>226.4</ele>
        <time>2021-11-30T13:13:26Z</time>
      </trkpt>
      <trkpt lat="44.35861" lon="4.8095">
        <ele>227.96</ele>
        <time>2021-11-30T13:13:46Z</time>
      </trkpt>
      <trkpt lat="44.35872" lon="4.80968">
        <ele>230.64</ele>
        <time>2021-11-30T13:14:06Z</time>
      </trkpt>
      <trkpt lat="44.35872" lon="4.80969">
        <ele>230.93</ele>
        <time>2021-11-30T13:14:07Z</time>
      </trkpt>
      <trkpt lat="44.35881" lon="4.80987">
        <ele>232.54</ele>
        <time>2021-11-30T13:14:25Z</time>
      </trkpt>
      <trkpt lat="44.35889" lon="4.81005">
        <ele>234.94</ele>
        <time>2021-11-30T13:14:44Z</time>
      </trkpt>
      <trkpt lat="44.35893" lon="4.81014">
        <ele>237.07</ele>
        <time>2021-11-30T13:15:01Z</time>
      </trkpt>
      <trkpt lat="44.35905" lon="4.81024">
        <ele>236.78</ele>
        <time>2021-11-30T13:15:18Z</time>
      </trkpt>
      <trkpt lat="44.35918" lon="4.81038">
        <ele>237.55</ele>
        <time>2021-11-30T13:15:36Z</time>
      </trkpt>
      <trkpt lat="44.3593" lon="4.81046">
        <ele>237.44</ele>
        <time>2021-11-30T13:15:51Z</time>
      </trkpt>
      <trkpt lat="44.35943" lon="4.81063">
        <ele>238.84</ele>
        <time>2021-11-30T13:16:09Z</time>
      </trkpt>
      <trkpt lat="44.35955" lon="4.81083">
        <ele>239.6</ele>
        <time>2021-11-30T13:16:26Z</time>
      </trkpt>
      <trkpt lat="44.35958" lon="4.81087">
        <ele>239.56</ele>
        <time>2021-11-30T13:16:30Z</time>
      </trkpt>
      <trkpt lat="44.35965" lon="4.81102">
        <ele>240.66</ele>
        <time>2021-11-30T13:16:43Z</time>
      </trkpt>
      <trkpt lat="44.35976" lon="4.81108">
        <ele>242.61</ele>
        <time>2021-11-30T13:16:57Z</time>
      </trkpt>
      <trkpt lat="44.35988" lon="4.81111">
        <ele>244.65</ele>
        <time>2021-11-30T13:17:13Z</time>
      </trkpt>
      <trkpt lat="44.35998" lon="4.81093">
        <ele>245.96</ele>
        <time>2021-11-30T13:17:33Z</time>
      </trkpt>
      <trkpt lat="44.36006" lon="4.81093">
        <ele>248.98</ele>
        <time>2021-11-30T13:17:48Z</time>
      </trkpt>
      <trkpt lat="44.36023" lon="4.8109">
        <ele>251.08</ele>
        <time>2021-11-30T13:18:08Z</time>
      </trkpt>
      <trkpt lat="44.36022" lon="4.81099">
        <ele>251.91</ele>
        <time>2021-11-30T13:18:23Z</time>
      </trkpt>
      <trkpt lat="44.36026" lon="4.81104">
        <ele>250.77</ele>
        <time>2021-11-30T13:18:37Z</time>
      </trkpt>
      <trkpt lat="44.36033" lon="4.81105">
        <ele>252.68</ele>
        <time>2021-11-30T13:18:52Z</time>
      </trkpt>
      <trkpt lat="44.36039" lon="4.81097">
        <ele>253.54</ele>
        <time>2021-11-30T13:19:04Z</time>
      </trkpt>
      <trkpt lat="44.36051" lon="4.81087">
        <ele>256.64</ele>
        <time>2021-11-30T13:19:22Z</time>
      </trkpt>
      <trkpt lat="44.36052" lon="4.81084">
        <ele>256.92</ele>
        <time>2021-11-30T13:19:44Z</time>
      </trkpt>
      <trkpt lat="44.36063" lon="4.81085">
        <ele>258.33</ele>
        <time>2021-11-30T13:20:01Z</time>
      </trkpt>
      <trkpt lat="44.36064" lon="4.81082">
        <ele>258.26</ele>
        <time>2021-11-30T13:20:16Z</time>
      </trkpt>
      <trkpt lat="44.36062" lon="4.81088">
        <ele>258.6</ele>
        <time>2021-11-30T13:20:55Z</time>
      </trkpt>
      <trkpt lat="44.36065" lon="4.81087">
        <ele>259.1</ele>
        <time>2021-11-30T13:20:58Z</time>
      </trkpt>
      <trkpt lat="44.3606" lon="4.81078">
        <ele>258.4</ele>
        <time>2021-11-30T13:21:24Z</time>
      </trkpt>
      <trkpt lat="44.3606" lon="4.81078">
        <ele>258.82</ele>
        <time>2021-11-30T13:21:46Z</time>
      </trkpt>
      <trkpt lat="44.3608" lon="4.81144">
        <ele>259.73</ele>
        <time>2021-11-30T13:25:33Z</time>
      </trkpt>
      <trkpt lat="44.36084" lon="4.81162">
        <ele>260.64</ele>
        <time>2021-11-30T13:25:46Z</time>
      </trkpt>
      <trkpt lat="44.36088" lon="4.8117">
        <ele>260.54</ele>
        <time>2021-11-30T13:25:51Z</time>
      </trkpt>
      <trkpt lat="44.36097" lon="4.81186">
        <ele>261.12</ele>
        <time>2021-11-30T13:26:06Z</time>
      </trkpt>
      <trkpt lat="44.36109" lon="4.81202">
        <ele>262.22</ele>
        <time>2021-11-30T13:26:24Z</time>
      </trkpt>
      <trkpt lat="44.36122" lon="4.81219">
        <ele>262.16</ele>
        <time>2021-11-30T13:26:44Z</time>
      </trkpt>
      <trkpt lat="44.36139" lon="4.81247">
        <ele>261.84</ele>
        <time>2021-11-30T13:27:06Z</time>
      </trkpt>
      <trkpt lat="44.36155" lon="4.81264">
        <ele>261.87</ele>
        <time>2021-11-30T13:27:26Z</time>
      </trkpt>
      <trkpt lat="44.36164" lon="4.81278">
        <ele>262.37</ele>
        <time>2021-11-30T13:27:38Z</time>
      </trkpt>
      <trkpt lat="44.36177" lon="4.81306">
        <ele>262.24</ele>
        <time>2021-11-30T13:28:00Z</time>
      </trkpt>
      <trkpt lat="44.36178" lon="4.81313">
        <ele>262.16</ele>
        <time>2021-11-30T13:28:05Z</time>
      </trkpt>
      <trkpt lat="44.36182" lon="4.81341">
        <ele>262.94</ele>
        <time>2021-11-30T13:28:23Z</time>
      </trkpt>
      <trkpt lat="44.36182" lon="4.81342">
        <ele>262.88</ele>
        <time>2021-11-30T13:28:24Z</time>
      </trkpt>
      <trkpt lat="44.36183" lon="4.81345">
        <ele>262.67</ele>
        <time>2021-11-30T13:28:26Z</time>
      </trkpt>
      <trkpt lat="44.36189" lon="4.81358">
        <ele>262.63</ele>
        <time>2021-11-30T13:28:38Z</time>
      </trkpt>
      <trkpt lat="44.36191" lon="4.81364">
        <ele>262.31</ele>
        <time>2021-11-30T13:28:44Z</time>
      </trkpt>
      <trkpt lat="44.36202" lon="4.81371">
        <ele>263.46</ele>
        <time>2021-11-30T13:29:01Z</time>
      </trkpt>
      <trkpt lat="44.36216" lon="4.81362">
        <ele>264.29</ele>
        <time>2021-11-30T13:29:20Z</time>
      </trkpt>
      <trkpt lat="44.3623" lon="4.81359">
        <ele>265.19</ele>
        <time>2021-11-30T13:29:35Z</time>
      </trkpt>
      <trkpt lat="44.36234" lon="4.81358">
        <ele>265.43</ele>
        <time>2021-11-30T13:29:50Z</time>
      </trkpt>
      <trkpt lat="44.36246" lon="4.81366">
        <ele>264.78</ele>
        <time>2021-11-30T13:30:05Z</time>
      </trkpt>
      <trkpt lat="44.36586" lon="4.81557">
        <ele>328</ele>
        <time>2021-11-30T13:35:19Z</time>
      </trkpt>
      <trkpt lat="44.36572" lon="4.8156">
        <ele>328</ele>
        <time>2021-11-30T13:35:20Z</time>
      </trkpt>
      <trkpt lat="44.36569" lon="4.8156">
        <ele>328.72</ele>
        <time>2021-11-30T13:35:37Z</time>
      </trkpt>
      <trkpt lat="44.36569" lon="4.81562">
        <ele>328.61</ele>
        <time>2021-11-30T13:35:50Z</time>
      </trkpt>
      <trkpt lat="44.36569" lon="4.81565">
        <ele>328.1</ele>
        <time>2021-11-30T13:35:55Z</time>
      </trkpt>
      <trkpt lat="44.3657" lon="4.81567">
        <ele>327.84</ele>
        <time>2021-11-30T13:36:13Z</time>
      </trkpt>
      <trkpt lat="44.3657" lon="4.81565">
        <ele>327.81</ele>
        <time>2021-11-30T13:36:24Z</time>
      </trkpt>
      <trkpt lat="44.366" lon="4.81626">
        <ele>325.93</ele>
        <time>2021-11-30T13:39:59Z</time>
      </trkpt>
      <trkpt lat="44.36612" lon="4.81641">
        <ele>326.21</ele>
        <time>2021-11-30T13:40:13Z</time>
      </trkpt>
      <trkpt lat="44.36618" lon="4.81648">
        <ele>325.68</ele>
        <time>2021-11-30T13:40:20Z</time>
      </trkpt>
      <trkpt lat="44.36636" lon="4.81659">
        <ele>325.2</ele>
        <time>2021-11-30T13:40:36Z</time>
      </trkpt>
      <trkpt lat="44.3665" lon="4.81669">
        <ele>325.51</ele>
        <time>2021-11-30T13:40:50Z</time>
      </trkpt>
      <trkpt lat="44.36671" lon="4.81679">
        <ele>325.82</ele>
        <time>2021-11-30T13:41:09Z</time>
      </trkpt>
      <trkpt lat="44.36682" lon="4.81695">
        <ele>325.82</ele>
        <time>2021-11-30T13:41:26Z</time>
      </trkpt>
      <trkpt lat="44.36686" lon="4.81703">
        <ele>325.4</ele>
        <time>2021-11-30T13:41:32Z</time>
      </trkpt>
      <trkpt lat="44.36694" lon="4.81722">
        <ele>325.09</ele>
        <time>2021-11-30T13:41:46Z</time>
      </trkpt>
      <trkpt lat="44.36704" lon="4.81744">
        <ele>323.85</ele>
        <time>2021-11-30T13:42:04Z</time>
      </trkpt>
      <trkpt lat="44.36705" lon="4.81778">
        <ele>322.93</ele>
        <time>2021-11-30T13:42:24Z</time>
      </trkpt>
      <trkpt lat="44.36707" lon="4.81801">
        <ele>322.41</ele>
        <time>2021-11-30T13:42:38Z</time>
      </trkpt>
      <trkpt lat="44.36709" lon="4.81804">
        <ele>322.25</ele>
        <time>2021-11-30T13:42:41Z</time>
      </trkpt>
      <trkpt lat="44.36716" lon="4.81807">
        <ele>321.85</ele>
        <time>2021-11-30T13:42:48Z</time>
      </trkpt>
      <trkpt lat="44.36724" lon="4.81805">
        <ele>321.83</ele>
        <time>2021-11-30T13:42:53Z</time>
      </trkpt>
      <trkpt lat="44.36727" lon="4.81805">
        <ele>321.95</ele>
        <time>2021-11-30T13:42:55Z</time>
      </trkpt>
      <trkpt lat="44.36734" lon="4.81802">
        <ele>322.2</ele>
        <time>2021-11-30T13:42:59Z</time>
      </trkpt>
      <trkpt lat="44.36738" lon="4.81801">
        <ele>322.28</ele>
        <time>2021-11-30T13:43:02Z</time>
      </trkpt>
      <trkpt lat="44.36747" lon="4.81799">
        <ele>321.83</ele>
        <time>2021-11-30T13:43:07Z</time>
      </trkpt>
      <trkpt lat="44.36755" lon="4.81796">
        <ele>322.77</ele>
        <time>2021-11-30T13:43:12Z</time>
      </trkpt>
      <trkpt lat="44.36763" lon="4.81794">
        <ele>322.62</ele>
        <time>2021-11-30T13:43:17Z</time>
      </trkpt>
      <trkpt lat="44.36776" lon="4.81785">
        <ele>322.86</ele>
        <time>2021-11-30T13:43:30Z</time>
      </trkpt>
      <trkpt lat="44.36796" lon="4.81775">
        <ele>322.41</ele>
        <time>2021-11-30T13:43:50Z</time>
      </trkpt>
      <trkpt lat="44.36817" lon="4.81771">
        <ele>321.81</ele>
        <time>2021-11-30T13:44:07Z</time>
      </trkpt>
      <trkpt lat="44.36832" lon="4.81774">
        <ele>320.88</ele>
        <time>2021-11-30T13:44:20Z</time>
      </trkpt>
      <trkpt lat="44.36845" lon="4.81778">
        <ele>319.27</ele>
        <time>2021-11-30T13:44:31Z</time>
      </trkpt>
      <trkpt lat="44.36858" lon="4.81784">
        <ele>318.12</ele>
        <time>2021-11-30T13:44:43Z</time>
      </trkpt>
      <trkpt lat="44.36872" lon="4.8179">
        <ele>317.35</ele>
        <time>2021-11-30T13:44:56Z</time>
      </trkpt>
      <trkpt lat="44.36879" lon="4.81804">
        <ele>317.04</ele>
        <time>2021-11-30T13:45:15Z</time>
      </trkpt>
      <trkpt lat="44.36877" lon="4.81808">
        <ele>317.28</ele>
        <time>2021-11-30T13:45:36Z</time>
      </trkpt>
      <trkpt lat="44.36877" lon="4.81808">
        <ele>317.38</ele>
        <time>2021-11-30T13:45:38Z</time>
      </trkpt>
      <trkpt lat="44.36916" lon="4.81828">
        <ele>315.12</ele>
        <time>2021-11-30T13:48:35Z</time>
      </trkpt>
      <trkpt lat="44.36921" lon="4.81835">
        <ele>315.51</ele>
        <time>2021-11-30T13:48:42Z</time>
      </trkpt>
      <trkpt lat="44.36935" lon="4.81847">
        <ele>315.38</ele>
        <time>2021-11-30T13:49:00Z</time>
      </trkpt>
      <trkpt lat="44.36958" lon="4.81867">
        <ele>315.87</ele>
        <time>2021-11-30T13:49:23Z</time>
      </trkpt>
      <trkpt lat="44.36978" lon="4.81881">
        <ele>315.9</ele>
        <time>2021-11-30T13:49:42Z</time>
      </trkpt>
      <trkpt lat="44.3698" lon="4.81881">
        <ele>315.89</ele>
        <time>2021-11-30T13:49:43Z</time>
      </trkpt>
      <trkpt lat="44.36999" lon="4.81892">
        <ele>315.32</ele>
        <time>2021-11-30T13:50:00Z</time>
      </trkpt>
      <trkpt lat="44.37" lon="4.81892">
        <ele>315.44</ele>
        <time>2021-11-30T13:50:01Z</time>
      </trkpt>
      <trkpt lat="44.37003" lon="4.81895">
        <ele>315.53</ele>
        <time>2021-11-30T13:50:04Z</time>
      </trkpt>
      <trkpt lat="44.3702" lon="4.81903">
        <ele>315.37</ele>
        <time>2021-11-30T13:50:18Z</time>
      </trkpt>
      <trkpt lat="44.37021" lon="4.81904">
        <ele>315.32</ele>
        <time>2021-11-30T13:50:19Z</time>
      </trkpt>
      <trkpt lat="44.37038" lon="4.81915">
        <ele>315.2</ele>
        <time>2021-11-30T13:50:35Z</time>
      </trkpt>
      <trkpt lat="44.37042" lon="4.81919">
        <ele>315.48</ele>
        <time>2021-11-30T13:50:39Z</time>
      </trkpt>
      <trkpt lat="44.37047" lon="4.81925">
        <ele>315.46</ele>
        <time>2021-11-30T13:50:44Z</time>
      </trkpt>
      <trkpt lat="44.37052" lon="4.81928">
        <ele>315.69</ele>
        <time>2021-11-30T13:50:48Z</time>
      </trkpt>
      <trkpt lat="44.37068" lon="4.81937">
        <ele>315.57</ele>
        <time>2021-11-30T13:51:02Z</time>
      </trkpt>
      <trkpt lat="44.3708" lon="4.81948">
        <ele>315.56</ele>
        <time>2021-11-30T13:51:13Z</time>
      </trkpt>
      <trkpt lat="44.37095" lon="4.81961">
        <ele>315.14</ele>
        <time>2021-11-30T13:51:28Z</time>
      </trkpt>
      <trkpt lat="44.37097" lon="4.81962">
        <ele>315.29</ele>
        <time>2021-11-30T13:51:29Z</time>
      </trkpt>
      <trkpt lat="44.37113" lon="4.81975">
        <ele>314.21</ele>
        <time>2021-11-30T13:51:44Z</time>
      </trkpt>
      <trkpt lat="44.37125" lon="4.81984">
        <ele>314.03</ele>
        <time>2021-11-30T13:51:55Z</time>
      </trkpt>
      <trkpt lat="44.37126" lon="4.81984">
        <ele>314.06</ele>
        <time>2021-11-30T13:51:56Z</time>
      </trkpt>
      <trkpt lat="44.37132" lon="4.81989">
        <ele>313.82</ele>
        <time>2021-11-30T13:52:03Z</time>
      </trkpt>
      <trkpt lat="44.37141" lon="4.81993">
        <ele>313.72</ele>
        <time>2021-11-30T13:52:11Z</time>
      </trkpt>
      <trkpt lat="44.37156" lon="4.81998">
        <ele>313.68</ele>
        <time>2021-11-30T13:52:27Z</time>
      </trkpt>
      <trkpt lat="44.37165" lon="4.82004">
        <ele>313.77</ele>
        <time>2021-11-30T13:52:42Z</time>
      </trkpt>
      <trkpt lat="44.37178" lon="4.82013">
        <ele>313.24</ele>
        <time>2021-11-30T13:52:59Z</time>
      </trkpt>
      <trkpt lat="44.37192" lon="4.8202">
        <ele>312.59</ele>
        <time>2021-11-30T13:53:15Z</time>
      </trkpt>
      <trkpt lat="44.37211" lon="4.82026">
        <ele>312.22</ele>
        <time>2021-11-30T13:53:35Z</time>
      </trkpt>
      <trkpt lat="44.37229" lon="4.82036">
        <ele>310.34</ele>
        <time>2021-11-30T13:53:56Z</time>
      </trkpt>
      <trkpt lat="44.37248" lon="4.82048">
        <ele>309.73</ele>
        <time>2021-11-30T13:54:17Z</time>
      </trkpt>
      <trkpt lat="44.37268" lon="4.82063">
        <ele>308.99</ele>
        <time>2021-11-30T13:54:36Z</time>
      </trkpt>
      <trkpt lat="44.37277" lon="4.82069">
        <ele>308.89</ele>
        <time>2021-11-30T13:54:51Z</time>
      </trkpt>
      <trkpt lat="44.37286" lon="4.82083">
        <ele>307.49</ele>
        <time>2021-11-30T13:55:12Z</time>
      </trkpt>
      <trkpt lat="44.37289" lon="4.82086">
        <ele>307.67</ele>
        <time>2021-11-30T13:55:15Z</time>
      </trkpt>
      <trkpt lat="44.37292" lon="4.82091">
        <ele>307.45</ele>
        <time>2021-11-30T13:55:19Z</time>
      </trkpt>
      <trkpt lat="44.37301" lon="4.82102">
        <ele>307.81</ele>
        <time>2021-11-30T13:55:33Z</time>
      </trkpt>
      <trkpt lat="44.37307" lon="4.82107">
        <ele>306.97</ele>
        <time>2021-11-30T13:55:48Z</time>
      </trkpt>
      <trkpt lat="44.37323" lon="4.82123">
        <ele>306.69</ele>
        <time>2021-11-30T13:56:11Z</time>
      </trkpt>
      <trkpt lat="44.37342" lon="4.82136">
        <ele>306.41</ele>
        <time>2021-11-30T13:56:25Z</time>
      </trkpt>
      <trkpt lat="44.37354" lon="4.82146">
        <ele>306.31</ele>
        <time>2021-11-30T13:56:35Z</time>
      </trkpt>
      <trkpt lat="44.37362" lon="4.82154">
        <ele>306.38</ele>
        <time>2021-11-30T13:56:44Z</time>
      </trkpt>
      <trkpt lat="44.37363" lon="4.82159">
        <ele>306.47</ele>
        <time>2021-11-30T13:56:47Z</time>
      </trkpt>
      <trkpt lat="44.37376" lon="4.82171">
        <ele>306.87</ele>
        <time>2021-11-30T13:57:00Z</time>
      </trkpt>
      <trkpt lat="44.37383" lon="4.82176">
        <ele>306.83</ele>
        <time>2021-11-30T13:57:07Z</time>
      </trkpt>
      <trkpt lat="44.37393" lon="4.82189">
        <ele>306.72</ele>
        <time>2021-11-30T13:57:19Z</time>
      </trkpt>
      <trkpt lat="44.37398" lon="4.82195">
        <ele>306.72</ele>
        <time>2021-11-30T13:57:24Z</time>
      </trkpt>
      <trkpt lat="44.37408" lon="4.82211">
        <ele>306.38</ele>
        <time>2021-11-30T13:57:38Z</time>
      </trkpt>
      <trkpt lat="44.37413" lon="4.82222">
        <ele>306.47</ele>
        <time>2021-11-30T13:57:46Z</time>
      </trkpt>
      <trkpt lat="44.37415" lon="4.82227">
        <ele>306.4</ele>
        <time>2021-11-30T13:57:50Z</time>
      </trkpt>
      <trkpt lat="44.37417" lon="4.82233">
        <ele>305.81</ele>
        <time>2021-11-30T13:57:54Z</time>
      </trkpt>
      <trkpt lat="44.37422" lon="4.82239">
        <ele>305.87</ele>
        <time>2021-11-30T13:58:00Z</time>
      </trkpt>
      <trkpt lat="44.3743" lon="4.82247">
        <ele>306.82</ele>
        <time>2021-11-30T13:58:09Z</time>
      </trkpt>
      <trkpt lat="44.37434" lon="4.82253">
        <ele>307.11</ele>
        <time>2021-11-30T13:58:15Z</time>
      </trkpt>
      <trkpt lat="44.37437" lon="4.82255">
        <ele>307.08</ele>
        <time>2021-11-30T13:58:17Z</time>
      </trkpt>
      <trkpt lat="44.37447" lon="4.82268">
        <ele>307.34</ele>
        <time>2021-11-30T13:58:30Z</time>
      </trkpt>
      <trkpt lat="44.37464" lon="4.82284">
        <ele>307.07</ele>
        <time>2021-11-30T13:58:49Z</time>
      </trkpt>
      <trkpt lat="44.37466" lon="4.82286">
        <ele>306.76</ele>
        <time>2021-11-30T13:58:51Z</time>
      </trkpt>
      <trkpt lat="44.37474" lon="4.82302">
        <ele>307.77</ele>
        <time>2021-11-30T13:59:07Z</time>
      </trkpt>
      <trkpt lat="44.3748" lon="4.823">
        <ele>308.02</ele>
        <time>2021-11-30T13:59:14Z</time>
      </trkpt>
      <trkpt lat="44.37494" lon="4.82299">
        <ele>307.49</ele>
        <time>2021-11-30T13:59:27Z</time>
      </trkpt>
      <trkpt lat="44.3751" lon="4.82295">
        <ele>307.55</ele>
        <time>2021-11-30T13:59:45Z</time>
      </trkpt>
      <trkpt lat="44.37517" lon="4.82295">
        <ele>305.85</ele>
        <time>2021-11-30T14:00:01Z</time>
      </trkpt>
      <trkpt lat="44.37537" lon="4.82293">
        <ele>305.3</ele>
        <time>2021-11-30T14:00:22Z</time>
      </trkpt>
      <trkpt lat="44.3755" lon="4.82292">
        <ele>303.94</ele>
        <time>2021-11-30T14:00:40Z</time>
      </trkpt>
      <trkpt lat="44.37556" lon="4.8229">
        <ele>304</ele>
        <time>2021-11-30T14:00:45Z</time>
      </trkpt>
      <trkpt lat="44.3756" lon="4.82288">
        <ele>303.95</ele>
        <time>2021-11-30T14:00:49Z</time>
      </trkpt>
      <trkpt lat="44.37564" lon="4.82285">
        <ele>303.16</ele>
        <time>2021-11-30T14:00:52Z</time>
      </trkpt>
      <trkpt lat="44.37569" lon="4.82281">
        <ele>302.94</ele>
        <time>2021-11-30T14:00:58Z</time>
      </trkpt>
      <trkpt lat="44.37576" lon="4.82269">
        <ele>302.19</ele>
        <time>2021-11-30T14:01:16Z</time>
      </trkpt>
      <trkpt lat="44.37561" lon="4.82253">
        <ele>300.77</ele>
        <time>2021-11-30T14:01:32Z</time>
      </trkpt>
      <trkpt lat="44.37553" lon="4.82238">
        <ele>300.7</ele>
        <time>2021-11-30T14:01:43Z</time>
      </trkpt>
      <trkpt lat="44.37552" lon="4.82231">
        <ele>300.97</ele>
        <time>2021-11-30T14:01:48Z</time>
      </trkpt>
      <trkpt lat="44.37551" lon="4.82223">
        <ele>300.6</ele>
        <time>2021-11-30T14:01:53Z</time>
      </trkpt>
      <trkpt lat="44.37547" lon="4.82201">
        <ele>298.85</ele>
        <time>2021-11-30T14:02:10Z</time>
      </trkpt>
      <trkpt lat="44.37541" lon="4.82174">
        <ele>297.69</ele>
        <time>2021-11-30T14:02:28Z</time>
      </trkpt>
      <trkpt lat="44.3754" lon="4.82169">
        <ele>297.62</ele>
        <time>2021-11-30T14:02:31Z</time>
      </trkpt>
      <trkpt lat="44.37539" lon="4.82164">
        <ele>297.68</ele>
        <time>2021-11-30T14:02:35Z</time>
      </trkpt>
      <trkpt lat="44.37539" lon="4.82141">
        <ele>296.56</ele>
        <time>2021-11-30T14:02:51Z</time>
      </trkpt>
      <trkpt lat="44.37541" lon="4.82139">
        <ele>296.41</ele>
        <time>2021-11-30T14:02:53Z</time>
      </trkpt>
      <trkpt lat="44.37559" lon="4.8213">
        <ele>296.13</ele>
        <time>2021-11-30T14:03:08Z</time>
      </trkpt>
      <trkpt lat="44.37577" lon="4.82128">
        <ele>296.41</ele>
        <time>2021-11-30T14:03:24Z</time>
      </trkpt>
      <trkpt lat="44.37595" lon="4.82112">
        <ele>295.6</ele>
        <time>2021-11-30T14:03:39Z</time>
      </trkpt>
      <trkpt lat="44.37611" lon="4.821">
        <ele>296.58</ele>
        <time>2021-11-30T14:03:53Z</time>
      </trkpt>
      <trkpt lat="44.37622" lon="4.82082">
        <ele>296.42</ele>
        <time>2021-11-30T14:04:07Z</time>
      </trkpt>
      <trkpt lat="44.37625" lon="4.8206">
        <ele>297.23</ele>
        <time>2021-11-30T14:04:21Z</time>
      </trkpt>
      <trkpt lat="44.37624" lon="4.82043">
        <ele>297.99</ele>
        <time>2021-11-30T14:04:32Z</time>
      </trkpt>
      <trkpt lat="44.37627" lon="4.82032">
        <ele>298.14</ele>
        <time>2021-11-30T14:04:39Z</time>
      </trkpt>
      <trkpt lat="44.37632" lon="4.82023">
        <ele>298.23</ele>
        <time>2021-11-30T14:04:46Z</time>
      </trkpt>
      <trkpt lat="44.37639" lon="4.82013">
        <ele>299.02</ele>
        <time>2021-11-30T14:04:57Z</time>
      </trkpt>
      <trkpt lat="44.37641" lon="4.81995">
        <ele>300.14</ele>
        <time>2021-11-30T14:05:10Z</time>
      </trkpt>
      <trkpt lat="44.37643" lon="4.81989">
        <ele>299.87</ele>
        <time>2021-11-30T14:05:14Z</time>
      </trkpt>
      <trkpt lat="44.37649" lon="4.81953">
        <ele>299.16</ele>
        <time>2021-11-30T14:05:36Z</time>
      </trkpt>
      <trkpt lat="44.37653" lon="4.81923">
        <ele>298.74</ele>
        <time>2021-11-30T14:05:54Z</time>
      </trkpt>
      <trkpt lat="44.37654" lon="4.81901">
        <ele>299.36</ele>
        <time>2021-11-30T14:06:09Z</time>
      </trkpt>
      <trkpt lat="44.37648" lon="4.81876">
        <ele>298.74</ele>
        <time>2021-11-30T14:06:34Z</time>
      </trkpt>
      <trkpt lat="44.37646" lon="4.81858">
        <ele>297.86</ele>
        <time>2021-11-30T14:06:46Z</time>
      </trkpt>
      <trkpt lat="44.37645" lon="4.81853">
        <ele>297.68</ele>
        <time>2021-11-30T14:06:49Z</time>
      </trkpt>
      <trkpt lat="44.37638" lon="4.81837">
        <ele>298</ele>
        <time>2021-11-30T14:07:04Z</time>
      </trkpt>
      <trkpt lat="44.37626" lon="4.81819">
        <ele>297.67</ele>
        <time>2021-11-30T14:07:23Z</time>
      </trkpt>
      <trkpt lat="44.37618" lon="4.81814">
        <ele>297.44</ele>
        <time>2021-11-30T14:07:46Z</time>
      </trkpt>
      <trkpt lat="44.37617" lon="4.81813">
        <ele>297.33</ele>
        <time>2021-11-30T14:07:49Z</time>
      </trkpt>
      <trkpt lat="44.37621" lon="4.81815">
        <ele>296.96</ele>
        <time>2021-11-30T14:08:02Z</time>
      </trkpt>
      <trkpt lat="44.37632" lon="4.81815">
        <ele>298.05</ele>
        <time>2021-11-30T14:08:36Z</time>
      </trkpt>
      <trkpt lat="44.37635" lon="4.81796">
        <ele>298.18</ele>
        <time>2021-11-30T14:08:55Z</time>
      </trkpt>
      <trkpt lat="44.37642" lon="4.81769">
        <ele>297.96</ele>
        <time>2021-11-30T14:09:17Z</time>
      </trkpt>
      <trkpt lat="44.37643" lon="4.81765">
        <ele>297.76</ele>
        <time>2021-11-30T14:09:20Z</time>
      </trkpt>
      <trkpt lat="44.37645" lon="4.81758">
        <ele>297.42</ele>
        <time>2021-11-30T14:09:25Z</time>
      </trkpt>
      <trkpt lat="44.37648" lon="4.8175">
        <ele>297.34</ele>
        <time>2021-11-30T14:09:30Z</time>
      </trkpt>
      <trkpt lat="44.37656" lon="4.81739">
        <ele>297.72</ele>
        <time>2021-11-30T14:09:41Z</time>
      </trkpt>
      <trkpt lat="44.37657" lon="4.81737">
        <ele>297.74</ele>
        <time>2021-11-30T14:09:42Z</time>
      </trkpt>
      <trkpt lat="44.37666" lon="4.81719">
        <ele>296.4</ele>
        <time>2021-11-30T14:09:56Z</time>
      </trkpt>
      <trkpt lat="44.37669" lon="4.8171">
        <ele>296.51</ele>
        <time>2021-11-30T14:10:01Z</time>
      </trkpt>
      <trkpt lat="44.37672" lon="4.81703">
        <ele>296.52</ele>
        <time>2021-11-30T14:10:05Z</time>
      </trkpt>
      <trkpt lat="44.37675" lon="4.81698">
        <ele>296.34</ele>
        <time>2021-11-30T14:10:09Z</time>
      </trkpt>
      <trkpt lat="44.3768" lon="4.81684">
        <ele>296.41</ele>
        <time>2021-11-30T14:10:19Z</time>
      </trkpt>
      <trkpt lat="44.37679" lon="4.81673">
        <ele>295.02</ele>
        <time>2021-11-30T14:10:27Z</time>
      </trkpt>
      <trkpt lat="44.37679" lon="4.81664">
        <ele>294.41</ele>
        <time>2021-11-30T14:10:33Z</time>
      </trkpt>
      <trkpt lat="44.37678" lon="4.81652">
        <ele>294.01</ele>
        <time>2021-11-30T14:10:41Z</time>
      </trkpt>
      <trkpt lat="44.37675" lon="4.81628">
        <ele>292.31</ele>
        <time>2021-11-30T14:10:57Z</time>
      </trkpt>
      <trkpt lat="44.37673" lon="4.81619">
        <ele>291.77</ele>
        <time>2021-11-30T14:11:03Z</time>
      </trkpt>
      <trkpt lat="44.37673" lon="4.81615">
        <ele>291.62</ele>
        <time>2021-11-30T14:11:06Z</time>
      </trkpt>
      <trkpt lat="44.37664" lon="4.816">
        <ele>290.84</ele>
        <time>2021-11-30T14:11:21Z</time>
      </trkpt>
      <trkpt lat="44.3766" lon="4.81591">
        <ele>290.04</ele>
        <time>2021-11-30T14:11:27Z</time>
      </trkpt>
      <trkpt lat="44.37659" lon="4.81588">
        <ele>289.69</ele>
        <time>2021-11-30T14:11:29Z</time>
      </trkpt>
      <trkpt lat="44.37657" lon="4.81585">
        <ele>289.27</ele>
        <time>2021-11-30T14:11:31Z</time>
      </trkpt>
      <trkpt lat="44.37652" lon="4.81567">
        <ele>285.92</ele>
        <time>2021-11-30T14:11:44Z</time>
      </trkpt>
      <trkpt lat="44.37646" lon="4.81561">
        <ele>284.75</ele>
        <time>2021-11-30T14:11:51Z</time>
      </trkpt>
      <trkpt lat="44.37642" lon="4.81558">
        <ele>284.44</ele>
        <time>2021-11-30T14:11:55Z</time>
      </trkpt>
      <trkpt lat="44.37633" lon="4.81553">
        <ele>282.97</ele>
        <time>2021-11-30T14:12:09Z</time>
      </trkpt>
      <trkpt lat="44.37628" lon="4.81545">
        <ele>281.69</ele>
        <time>2021-11-30T14:12:23Z</time>
      </trkpt>
      <trkpt lat="44.37624" lon="4.81538">
        <ele>281.2</ele>
        <time>2021-11-30T14:12:43Z</time>
      </trkpt>
      <trkpt lat="44.37658" lon="4.81495">
        <ele>275.29</ele>
        <time>2021-11-30T14:16:16Z</time>
      </trkpt>
      <trkpt lat="44.37665" lon="4.81497">
        <ele>275.38</ele>
        <time>2021-11-30T14:16:22Z</time>
      </trkpt>
      <trkpt lat="44.37669" lon="4.815">
        <ele>275.2</ele>
        <time>2021-11-30T14:16:26Z</time>
      </trkpt>
      <trkpt lat="44.37688" lon="4.81502">
        <ele>274.4</ele>
        <time>2021-11-30T14:16:47Z</time>
      </trkpt>
      <trkpt lat="44.37691" lon="4.815">
        <ele>274.11</ele>
        <time>2021-11-30T14:16:50Z</time>
      </trkpt>
      <trkpt lat="44.37699" lon="4.8148">
        <ele>270.76</ele>
        <time>2021-11-30T14:17:06Z</time>
      </trkpt>
      <trkpt lat="44.37696" lon="4.8146">
        <ele>268.76</ele>
        <time>2021-11-30T14:17:19Z</time>
      </trkpt>
      <trkpt lat="44.37695" lon="4.81457">
        <ele>268.46</ele>
        <time>2021-11-30T14:17:21Z</time>
      </trkpt>
      <trkpt lat="44.37686" lon="4.81442">
        <ele>267.55</ele>
        <time>2021-11-30T14:17:32Z</time>
      </trkpt>
      <trkpt lat="44.37676" lon="4.81423">
        <ele>267.06</ele>
        <time>2021-11-30T14:17:47Z</time>
      </trkpt>
      <trkpt lat="44.37665" lon="4.81407">
        <ele>266.5</ele>
        <time>2021-11-30T14:18:01Z</time>
      </trkpt>
      <trkpt lat="44.37657" lon="4.81396">
        <ele>264.35</ele>
        <time>2021-11-30T14:18:09Z</time>
      </trkpt>
      <trkpt lat="44.37641" lon="4.81376">
        <ele>264.1</ele>
        <time>2021-11-30T14:18:24Z</time>
      </trkpt>
      <trkpt lat="44.37633" lon="4.81371">
        <ele>262.5</ele>
        <time>2021-11-30T14:18:31Z</time>
      </trkpt>
      <trkpt lat="44.37613" lon="4.81353">
        <ele>260.97</ele>
        <time>2021-11-30T14:18:49Z</time>
      </trkpt>
      <trkpt lat="44.37595" lon="4.81335">
        <ele>259.46</ele>
        <time>2021-11-30T14:19:05Z</time>
      </trkpt>
      <trkpt lat="44.37587" lon="4.81328">
        <ele>259.41</ele>
        <time>2021-11-30T14:19:13Z</time>
      </trkpt>
      <trkpt lat="44.37584" lon="4.81322">
        <ele>259.05</ele>
        <time>2021-11-30T14:19:17Z</time>
      </trkpt>
      <trkpt lat="44.37573" lon="4.81313">
        <ele>258.77</ele>
        <time>2021-11-30T14:19:26Z</time>
      </trkpt>
      <trkpt lat="44.37561" lon="4.81301">
        <ele>258.81</ele>
        <time>2021-11-30T14:19:37Z</time>
      </trkpt>
      <trkpt lat="44.37555" lon="4.81294">
        <ele>258.88</ele>
        <time>2021-11-30T14:19:42Z</time>
      </trkpt>
      <trkpt lat="44.37547" lon="4.81286">
        <ele>258.75</ele>
        <time>2021-11-30T14:19:48Z</time>
      </trkpt>
      <trkpt lat="44.37531" lon="4.81264">
        <ele>258.96</ele>
        <time>2021-11-30T14:20:03Z</time>
      </trkpt>
      <trkpt lat="44.37522" lon="4.81243">
        <ele>258.99</ele>
        <time>2021-11-30T14:20:18Z</time>
      </trkpt>
      <trkpt lat="44.37513" lon="4.81226">
        <ele>259.24</ele>
        <time>2021-11-30T14:20:31Z</time>
      </trkpt>
      <trkpt lat="44.37507" lon="4.8122">
        <ele>259.02</ele>
        <time>2021-11-30T14:20:43Z</time>
      </trkpt>
      <trkpt lat="44.37507" lon="4.8122">
        <ele>258.47</ele>
        <time>2021-11-30T14:21:00Z</time>
      </trkpt>
      <trkpt lat="44.37507" lon="4.81218">
        <ele>258.54</ele>
        <time>2021-11-30T14:21:07Z</time>
      </trkpt>
      <trkpt lat="44.37476" lon="4.81138">
        <ele>258.04</ele>
        <time>2021-11-30T14:23:19Z</time>
      </trkpt>
      <trkpt lat="44.37475" lon="4.81136">
        <ele>258.25</ele>
        <time>2021-11-30T14:23:21Z</time>
      </trkpt>
      <trkpt lat="44.37475" lon="4.81125">
        <ele>258.49</ele>
        <time>2021-11-30T14:23:29Z</time>
      </trkpt>
      <trkpt lat="44.37477" lon="4.8112">
        <ele>258.17</ele>
        <time>2021-11-30T14:23:33Z</time>
      </trkpt>
      <trkpt lat="44.37475" lon="4.81111">
        <ele>256.97</ele>
        <time>2021-11-30T14:23:41Z</time>
      </trkpt>
      <trkpt lat="44.37475" lon="4.81104">
        <ele>258.03</ele>
        <time>2021-11-30T14:23:58Z</time>
      </trkpt>
      <trkpt lat="44.3747" lon="4.81102">
        <ele>257.42</ele>
        <time>2021-11-30T14:24:11Z</time>
      </trkpt>
      <trkpt lat="44.37467" lon="4.81102">
        <ele>257.25</ele>
        <time>2021-11-30T14:24:13Z</time>
      </trkpt>
      <trkpt lat="44.3746" lon="4.81099">
        <ele>257.33</ele>
        <time>2021-11-30T14:24:19Z</time>
      </trkpt>
      <trkpt lat="44.37452" lon="4.81096">
        <ele>257.19</ele>
        <time>2021-11-30T14:24:26Z</time>
      </trkpt>
      <trkpt lat="44.37441" lon="4.81088">
        <ele>257.77</ele>
        <time>2021-11-30T14:24:38Z</time>
      </trkpt>
      <trkpt lat="44.3744" lon="4.81085">
        <ele>257.34</ele>
        <time>2021-11-30T14:24:40Z</time>
      </trkpt>
      <trkpt lat="44.37426" lon="4.81075">
        <ele>255.86</ele>
        <time>2021-11-30T14:24:55Z</time>
      </trkpt>
      <trkpt lat="44.37422" lon="4.81071">
        <ele>255.81</ele>
        <time>2021-11-30T14:25:00Z</time>
      </trkpt>
      <trkpt lat="44.37411" lon="4.81059">
        <ele>254.9</ele>
        <time>2021-11-30T14:25:15Z</time>
      </trkpt>
      <trkpt lat="44.37409" lon="4.81036">
        <ele>253.77</ele>
        <time>2021-11-30T14:25:32Z</time>
      </trkpt>
      <trkpt lat="44.37397" lon="4.81016">
        <ele>254.4</ele>
        <time>2021-11-30T14:25:50Z</time>
      </trkpt>
      <trkpt lat="44.37394" lon="4.81013">
        <ele>254.84</ele>
        <time>2021-11-30T14:25:53Z</time>
      </trkpt>
      <trkpt lat="44.37377" lon="4.80987">
        <ele>254.43</ele>
        <time>2021-11-30T14:26:13Z</time>
      </trkpt>
      <trkpt lat="44.37364" lon="4.80964">
        <ele>251.93</ele>
        <time>2021-11-30T14:26:29Z</time>
      </trkpt>
      <trkpt lat="44.37354" lon="4.80945">
        <ele>251.88</ele>
        <time>2021-11-30T14:26:44Z</time>
      </trkpt>
      <trkpt lat="44.37346" lon="4.80931">
        <ele>250.47</ele>
        <time>2021-11-30T14:26:57Z</time>
      </trkpt>
      <trkpt lat="44.37346" lon="4.80929">
        <ele>250.5</ele>
        <time>2021-11-30T14:27:25Z</time>
      </trkpt>
      <trkpt lat="44.37327" lon="4.80924">
        <ele>250.66</ele>
        <time>2021-11-30T14:28:20Z</time>
      </trkpt>
      <trkpt lat="44.37309" lon="4.80924">
        <ele>250.16</ele>
        <time>2021-11-30T14:28:35Z</time>
      </trkpt>
      <trkpt lat="44.37304" lon="4.80923">
        <ele>249.55</ele>
        <time>2021-11-30T14:28:39Z</time>
      </trkpt>
      <trkpt lat="44.37296" lon="4.8092">
        <ele>249.07</ele>
        <time>2021-11-30T14:28:46Z</time>
      </trkpt>
      <trkpt lat="44.37282" lon="4.80914">
        <ele>248.88</ele>
        <time>2021-11-30T14:28:59Z</time>
      </trkpt>
      <trkpt lat="44.37278" lon="4.80913">
        <ele>248.46</ele>
        <time>2021-11-30T14:29:03Z</time>
      </trkpt>
      <trkpt lat="44.37276" lon="4.80913">
        <ele>248.28</ele>
        <time>2021-11-30T14:29:06Z</time>
      </trkpt>
      <trkpt lat="44.37272" lon="4.80908">
        <ele>248.17</ele>
        <time>2021-11-30T14:29:11Z</time>
      </trkpt>
      <trkpt lat="44.37271" lon="4.80899">
        <ele>248.11</ele>
        <time>2021-11-30T14:29:17Z</time>
      </trkpt>
      <trkpt lat="44.37264" lon="4.80888">
        <ele>248.2</ele>
        <time>2021-11-30T14:29:33Z</time>
      </trkpt>
      <trkpt lat="44.37249" lon="4.80885">
        <ele>246.66</ele>
        <time>2021-11-30T14:30:02Z</time>
      </trkpt>
      <trkpt lat="44.37237" lon="4.80888">
        <ele>243.68</ele>
        <time>2021-11-30T14:30:22Z</time>
      </trkpt>
      <trkpt lat="44.37226" lon="4.80895">
        <ele>242.44</ele>
        <time>2021-11-30T14:30:35Z</time>
      </trkpt>
      <trkpt lat="44.37221" lon="4.80887">
        <ele>241.37</ele>
        <time>2021-11-30T14:30:47Z</time>
      </trkpt>
      <trkpt lat="44.37215" lon="4.80869">
        <ele>240.71</ele>
        <time>2021-11-30T14:31:03Z</time>
      </trkpt>
      <trkpt lat="44.37211" lon="4.80855">
        <ele>240.35</ele>
        <time>2021-11-30T14:31:17Z</time>
      </trkpt>
      <trkpt lat="44.37212" lon="4.80842">
        <ele>240.39</ele>
        <time>2021-11-30T14:31:26Z</time>
      </trkpt>
      <trkpt lat="44.37213" lon="4.80823">
        <ele>239.94</ele>
        <time>2021-11-30T14:31:38Z</time>
      </trkpt>
      <trkpt lat="44.37211" lon="4.80817">
        <ele>240.1</ele>
        <time>2021-11-30T14:31:43Z</time>
      </trkpt>
      <trkpt lat="44.37208" lon="4.80814">
        <ele>239.78</ele>
        <time>2021-11-30T14:31:47Z</time>
      </trkpt>
      <trkpt lat="44.37191" lon="4.8081">
        <ele>243.22</ele>
        <time>2021-11-30T14:32:06Z</time>
      </trkpt>
      <trkpt lat="44.37179" lon="4.80812">
        <ele>245.04</ele>
        <time>2021-11-30T14:32:20Z</time>
      </trkpt>
      <trkpt lat="44.37176" lon="4.80814">
        <ele>248.04</ele>
        <time>2021-11-30T14:32:29Z</time>
      </trkpt>
      <trkpt lat="44.37171" lon="4.80817">
        <ele>247.88</ele>
        <time>2021-11-30T14:32:53Z</time>
      </trkpt>
      <trkpt lat="44.3717" lon="4.80817">
        <ele>248.19</ele>
        <time>2021-11-30T14:33:01Z</time>
      </trkpt>
      <trkpt lat="44.3715" lon="4.80792">
        <ele>248.56</ele>
        <time>2021-11-30T14:33:46Z</time>
      </trkpt>
      <trkpt lat="44.37153" lon="4.80787">
        <ele>250.13</ele>
        <time>2021-11-30T14:34:07Z</time>
      </trkpt>
      <trkpt lat="44.37154" lon="4.80787">
        <ele>250.51</ele>
        <time>2021-11-30T14:34:19Z</time>
      </trkpt>
      <trkpt lat="44.37173" lon="4.807">
        <ele>255.48</ele>
        <time>2021-11-30T14:37:25Z</time>
      </trkpt>
      <trkpt lat="44.37174" lon="4.80698">
        <ele>255.7</ele>
        <time>2021-11-30T14:37:27Z</time>
      </trkpt>
      <trkpt lat="44.37177" lon="4.80678">
        <ele>256.98</ele>
        <time>2021-11-30T14:37:45Z</time>
      </trkpt>
      <trkpt lat="44.37175" lon="4.80664">
        <ele>258.2</ele>
        <time>2021-11-30T14:38:03Z</time>
      </trkpt>
      <trkpt lat="44.3717" lon="4.80654">
        <ele>258.26</ele>
        <time>2021-11-30T14:38:21Z</time>
      </trkpt>
      <trkpt lat="44.37164" lon="4.80647">
        <ele>258.06</ele>
        <time>2021-11-30T14:38:36Z</time>
      </trkpt>
      <trkpt lat="44.37161" lon="4.80642">
        <ele>257.72</ele>
        <time>2021-11-30T14:38:45Z</time>
      </trkpt>
      <trkpt lat="44.37158" lon="4.80635">
        <ele>258.6</ele>
        <time>2021-11-30T14:39:02Z</time>
      </trkpt>
      <trkpt lat="44.3716" lon="4.80636">
        <ele>258.61</ele>
        <time>2021-11-30T14:39:19Z</time>
      </trkpt>
      <trkpt lat="44.37151" lon="4.8065">
        <ele>252.88</ele>
        <time>2021-11-30T14:45:56Z</time>
      </trkpt>
      <trkpt lat="44.37148" lon="4.80642">
        <ele>251.57</ele>
        <time>2021-11-30T14:46:13Z</time>
      </trkpt>
      <trkpt lat="44.3715" lon="4.80634">
        <ele>250.65</ele>
        <time>2021-11-30T14:46:31Z</time>
      </trkpt>
      <trkpt lat="44.37151" lon="4.8063">
        <ele>250.36</ele>
        <time>2021-11-30T14:46:52Z</time>
      </trkpt>
      <trkpt lat="44.37149" lon="4.8062">
        <ele>248.56</ele>
        <time>2021-11-30T14:47:08Z</time>
      </trkpt>
      <trkpt lat="44.37137" lon="4.80617">
        <ele>245.38</ele>
        <time>2021-11-30T14:47:25Z</time>
      </trkpt>
      <trkpt lat="44.37137" lon="4.80607">
        <ele>243.2</ele>
        <time>2021-11-30T14:47:38Z</time>
      </trkpt>
      <trkpt lat="44.37138" lon="4.80608">
        <ele>242.72</ele>
        <time>2021-11-30T14:48:06Z</time>
      </trkpt>
      <trkpt lat="44.37132" lon="4.80617">
        <ele>242.43</ele>
        <time>2021-11-30T14:48:23Z</time>
      </trkpt>
      <trkpt lat="44.37129" lon="4.80633">
        <ele>241.55</ele>
        <time>2021-11-30T14:48:41Z</time>
      </trkpt>
      <trkpt lat="44.37126" lon="4.80638">
        <ele>240.99</ele>
        <time>2021-11-30T14:48:45Z</time>
      </trkpt>
      <trkpt lat="44.37124" lon="4.80649">
        <ele>240.52</ele>
        <time>2021-11-30T14:48:53Z</time>
      </trkpt>
      <trkpt lat="44.3712" lon="4.80665">
        <ele>239.98</ele>
        <time>2021-11-30T14:49:06Z</time>
      </trkpt>
      <trkpt lat="44.3712" lon="4.80675">
        <ele>239.61</ele>
        <time>2021-11-30T14:49:34Z</time>
      </trkpt>
      <trkpt lat="44.37124" lon="4.80682">
        <ele>239.61</ele>
        <time>2021-11-30T14:49:46Z</time>
      </trkpt>
      <trkpt lat="44.3713" lon="4.80691">
        <ele>241.34</ele>
        <time>2021-11-30T14:50:01Z</time>
      </trkpt>
      <trkpt lat="44.37134" lon="4.80706">
        <ele>241.98</ele>
        <time>2021-11-30T14:50:23Z</time>
      </trkpt>
      <trkpt lat="44.37135" lon="4.80716">
        <ele>244.38</ele>
        <time>2021-11-30T14:50:30Z</time>
      </trkpt>
      <trkpt lat="44.37135" lon="4.80733">
        <ele>245.19</ele>
        <time>2021-11-30T14:50:43Z</time>
      </trkpt>
      <trkpt lat="44.37135" lon="4.80734">
        <ele>245.25</ele>
        <time>2021-11-30T14:50:44Z</time>
      </trkpt>
      <trkpt lat="44.37132" lon="4.80748">
        <ele>244.41</ele>
        <time>2021-11-30T14:50:59Z</time>
      </trkpt>
      <trkpt lat="44.37129" lon="4.80761">
        <ele>243.19</ele>
        <time>2021-11-30T14:51:19Z</time>
      </trkpt>
      <trkpt lat="44.37128" lon="4.80786">
        <ele>244.23</ele>
        <time>2021-11-30T14:51:37Z</time>
      </trkpt>
      <trkpt lat="44.37134" lon="4.80799">
        <ele>245.07</ele>
        <time>2021-11-30T14:51:52Z</time>
      </trkpt>
      <trkpt lat="44.37142" lon="4.80802">
        <ele>245.1</ele>
        <time>2021-11-30T14:52:02Z</time>
      </trkpt>
      <trkpt lat="44.37146" lon="4.80803">
        <ele>246.06</ele>
        <time>2021-11-30T14:52:17Z</time>
      </trkpt>
      <trkpt lat="44.37147" lon="4.80805">
        <ele>245.87</ele>
        <time>2021-11-30T14:52:19Z</time>
      </trkpt>
      <trkpt lat="44.37149" lon="4.80807">
        <ele>245.37</ele>
        <time>2021-11-30T14:52:22Z</time>
      </trkpt>
      <trkpt lat="44.37167" lon="4.80812">
        <ele>244.48</ele>
        <time>2021-11-30T14:52:37Z</time>
      </trkpt>
      <trkpt lat="44.37182" lon="4.80812">
        <ele>242.73</ele>
        <time>2021-11-30T14:52:54Z</time>
      </trkpt>
      <trkpt lat="44.37195" lon="4.80809">
        <ele>239.54</ele>
        <time>2021-11-30T14:53:04Z</time>
      </trkpt>
      <trkpt lat="44.37203" lon="4.80809">
        <ele>237.89</ele>
        <time>2021-11-30T14:53:09Z</time>
      </trkpt>
      <trkpt lat="44.37213" lon="4.80836">
        <ele>235.69</ele>
        <time>2021-11-30T14:53:25Z</time>
      </trkpt>
      <trkpt lat="44.3721" lon="4.80865">
        <ele>235.73</ele>
        <time>2021-11-30T14:53:40Z</time>
      </trkpt>
      <trkpt lat="44.37209" lon="4.80868">
        <ele>235.84</ele>
        <time>2021-11-30T14:53:42Z</time>
      </trkpt>
      <trkpt lat="44.37206" lon="4.80876">
        <ele>235.62</ele>
        <time>2021-11-30T14:53:48Z</time>
      </trkpt>
      <trkpt lat="44.37216" lon="4.80896">
        <ele>234.88</ele>
        <time>2021-11-30T14:54:03Z</time>
      </trkpt>
      <trkpt lat="44.37216" lon="4.80901">
        <ele>234.75</ele>
        <time>2021-11-30T14:54:25Z</time>
      </trkpt>
      <trkpt lat="44.37217" lon="4.80902">
        <ele>234.98</ele>
        <time>2021-11-30T14:54:33Z</time>
      </trkpt>
      <trkpt lat="44.37214" lon="4.80891">
        <ele>234.13</ele>
        <time>2021-11-30T15:03:24Z</time>
      </trkpt>
      <trkpt lat="44.37212" lon="4.80888">
        <ele>234.09</ele>
        <time>2021-11-30T15:03:25Z</time>
      </trkpt>
      <trkpt lat="44.37211" lon="4.80886">
        <ele>234.05</ele>
        <time>2021-11-30T15:03:26Z</time>
      </trkpt>
      <trkpt lat="44.37209" lon="4.80884">
        <ele>234</ele>
        <time>2021-11-30T15:03:27Z</time>
      </trkpt>
    </trkseg>
  </trk>
</gpx>